Darstellungsparameter: Aktuell verwendete Einstellungen:
Skalierung der Graphiken ... ?
xyx+y,   Skalierungsfaktor:      Skalierung: Modus: x, Faktor: 1
Darstellungszeitraum ... ?
Vom - - bis: - -   Zeitraum: 04.08.2008 - 17.08.2008
Min/Max/Avg-Anzeige ... ?
Zeige MMA aktuell
Zeige MMA Monat
Zeige MMA alles
Zeige --A aktuell
Zeige --A Monat
Zeige --A alles
Keine MMA-Anzeige
MMA:
Keine MMA-Graphiken
MMA-Basis: 04.08.2008 - 17.08.2008
Quicknavigation für Darstellung... ?
Tage:      1T, 2T, 3T, 5T -1T -2T -3T -5T +1T +2T +3T +5T
Wochen: 1W, 2W, 3W -1W -2W -3W +1W +2W +3W
Monate: 1M, 3M, 6M -1M -3M -6M +1M +3M +6M
Jahre:    1J, 3J, 5J, 10J -1J -3J -5J -10J +1J +3J +5J +10J
Nutze für die Darstellung ... ?
Originaldaten oder Mittelwerte auf ...
Stundenbasis Tagesbasis Wochenbasis
Monatsbasis Jahresbasis      Datenbasis: Original-Daten
Darstellen als:
Statistik (Auto) Statistik J:M      Darstellung:
Zur Graphik,    zurück zur Übersicht aller Sensoren.
 
Tabellarische Datenbersicht: ?
 
Sensor: Nr:Datum:Temp:Feuchte:Taupunkt:
Aussen-T/F 1 04-08-2008 00:01:05 21.8 C 64 % 14.69 C
2 04-08-2008 00:13:05 21.8 C 64 % 14.69 C
3 04-08-2008 00:25:05 21.6 C 65 % 14.74 C
4 04-08-2008 00:37:05 21.3 C 66 % 14.69 C
5 04-08-2008 00:49:05 21.3 C 66 % 14.69 C
6 04-08-2008 01:01:05 21.6 C 64 % 14.5 C
7 04-08-2008 01:13:05 21.8 C 62 % 14.2 C
8 04-08-2008 01:25:05 22.1 C 61 % 14.23 C
9 04-08-2008 01:37:05 22.6 C 59 % 14.18 C
10 04-08-2008 01:49:05 22.9 C 57 % 13.93 C
11 04-08-2008 02:01:05 23.1 C 55 % 13.57 C
12 04-08-2008 02:13:05 23.3 C 54 % 13.47 C
13 04-08-2008 02:25:05 23.4 C 53 % 13.28 C
14 04-08-2008 02:37:05 23.5 C 53 % 13.37 C
15 04-08-2008 02:49:06 23.4 C 53 % 13.28 C
16 04-08-2008 03:01:06 23.3 C 54 % 13.47 C
17 04-08-2008 03:13:06 23.2 C 54 % 13.38 C
18 04-08-2008 03:25:06 23 C 55 % 13.48 C
19 04-08-2008 03:37:06 22.9 C 56 % 13.66 C
20 04-08-2008 03:49:06 21.5 C 67 % 15.12 C
21 04-08-2008 04:01:06 19.8 C 81 % 16.45 C
22 04-08-2008 04:13:06 19.5 C 84 % 16.72 C
23 04-08-2008 04:25:06 19.4 C 85 % 16.81 C
24 04-08-2008 04:37:06 19.1 C 85 % 16.52 C
25 04-08-2008 04:49:06 19.2 C 81 % 15.86 C
Sensor: Nr:Datum:Temp:Feuchte:Taupunkt:
Aussen-T/F 26 04-08-2008 05:01:06 18.9 C 82 % 15.76 C
27 04-08-2008 05:13:06 18.8 C 84 % 16.04 C
28 04-08-2008 05:25:06 18.4 C 84 % 15.65 C
29 04-08-2008 05:37:06 17.9 C 84 % 15.16 C
30 04-08-2008 05:49:06 17.7 C 85 % 15.15 C
31 04-08-2008 06:01:06 17.6 C 86 % 15.23 C
32 04-08-2008 06:13:06 17.5 C 87 % 15.31 C
33 04-08-2008 06:25:06 17.2 C 88 % 15.2 C
34 04-08-2008 06:37:06 16.9 C 89 % 15.08 C
35 04-08-2008 06:49:06 16.8 C 89 % 14.98 C
36 04-08-2008 07:01:07 16.6 C 90 % 14.95 C
37 04-08-2008 07:13:07 16.3 C 90 % 14.66 C
38 04-08-2008 07:25:07 16.4 C 90 % 14.76 C
39 04-08-2008 07:37:07 16.5 C 90 % 14.85 C
40 04-08-2008 07:49:07 16.5 C 90 % 14.85 C
41 04-08-2008 08:01:07 17 C 88 % 15 C
42 04-08-2008 08:13:07 17.2 C 86 % 14.84 C
43 04-08-2008 08:25:07 17.4 C 85 % 14.85 C
44 04-08-2008 08:37:07 17.9 C 85 % 15.34 C
45 04-08-2008 08:49:07 18.1 C 84 % 15.35 C
46 04-08-2008 09:01:07 18 C 83 % 15.07 C
47 04-08-2008 09:13:07 17.9 C 83 % 14.97 C
48 04-08-2008 09:25:04 18.1 C 80 % 14.6 C
49 04-08-2008 09:37:04 18.6 C 80 % 15.08 C
50 04-08-2008 09:49:02 19.1 C 77 % 14.97 C
Sensor: Nr:Datum:Temp:Feuchte:Taupunkt:
Aussen-T/F 51 04-08-2008 10:01:02 19.1 C 72 % 13.94 C
52 04-08-2008 10:13:02 19 C 70 % 13.41 C
53 04-08-2008 10:25:01 19.4 C 71 % 14.01 C
54 04-08-2008 10:37:02 19.9 C 66 % 13.36 C
55 04-08-2008 10:49:02 20.4 C 57 % 11.6 C
56 04-08-2008 11:01:03 20.7 C 55 % 11.34 C
57 04-08-2008 11:13:03 20.8 C 52 % 10.59 C
58 04-08-2008 11:25:02 21.4 C 49 % 10.25 C
59 04-08-2008 11:37:02 21.8 C 49 % 10.62 C
60 04-08-2008 11:49:02 22 C 45 % 9.53 C
61 04-08-2008 12:01:02 22.6 C 44 % 9.74 C
62 04-08-2008 12:13:02 22.9 C 41 % 8.96 C
63 04-08-2008 12:25:02 23.7 C 37 % 8.16 C
64 04-08-2008 12:37:02 23.1 C 37 % 7.63 C
65 04-08-2008 12:49:02 23.4 C 36 % 7.49 C
66 04-08-2008 13:01:02 24.4 C 32 % 6.65 C
67 04-08-2008 13:13:02 24 C 31 % 5.84 C
68 04-08-2008 13:25:02 24 C 30 % 5.37 C
69 04-08-2008 13:37:02 24.5 C 31 % 6.28 C
70 04-08-2008 13:49:03 24.8 C 28 % 5.07 C
71 04-08-2008 14:01:03 25.7 C 27 % 5.31 C
72 04-08-2008 14:13:03 25.4 C 30 % 6.58 C
73 04-08-2008 14:25:03 24.8 C 35 % 8.31 C
74 04-08-2008 14:37:02 24.4 C 37 % 8.78 C
75 04-08-2008 14:49:02 25.3 C 31 % 6.97 C
Sensor: Nr:Datum:Temp:Feuchte:Taupunkt:
Aussen-T/F 76 04-08-2008 15:01:01 25.2 C 28 % 5.41 C
77 04-08-2008 15:13:01 24.7 C 28 % 4.98 C
78 04-08-2008 15:25:02 25.1 C 28 % 5.32 C
79 04-08-2008 15:37:01 25.9 C 26 % 4.94 C
80 04-08-2008 15:49:02 27.1 C 22 % 3.57 C
81 04-08-2008 16:01:02 26.2 C 23 % 3.45 C
82 04-08-2008 16:13:02 26.9 C 22 % 3.4 C
83 04-08-2008 16:25:02 26.8 C 22 % 3.32 C
84 04-08-2008 16:37:02 25.8 C 22 % 2.49 C
85 04-08-2008 16:49:03 26.3 C 25 % 4.72 C
86 04-08-2008 17:01:02 27.2 C 23 % 4.28 C
87 04-08-2008 17:13:02 26.3 C 25 % 4.72 C
88 04-08-2008 17:25:03 26.7 C 22 % 3.24 C
89 04-08-2008 17:37:02 26.2 C 22 % 2.82 C
90 04-08-2008 17:49:02 26.3 C 21 % 2.25 C
91 04-08-2008 18:01:02 26.5 C 22 % 3.07 C
92 04-08-2008 18:13:02 26.6 C 22 % 3.15 C
93 04-08-2008 18:25:02 25.9 C 23 % 3.2 C
94 04-08-2008 18:37:02 26.1 C 23 % 3.37 C
95 04-08-2008 18:49:01 25.7 C 25 % 4.21 C
96 04-08-2008 19:01:02 26 C 23 % 3.28 C
97 04-08-2008 19:13:02 25.9 C 26 % 4.94 C
98 04-08-2008 19:25:01 26.1 C 25 % 4.55 C
99 04-08-2008 19:37:02 26.1 C 24 % 3.97 C
100 04-08-2008 19:49:02 25.4 C 25 % 3.96 C
Sensor: Nr:Datum:Temp:Feuchte:Taupunkt:
Aussen-T/F 101 04-08-2008 20:01:02 24.5 C 26 % 3.76 C
102 04-08-2008 20:13:02 23.9 C 28 % 4.3 C
103 04-08-2008 20:25:02 23.4 C 29 % 4.37 C
104 04-08-2008 20:37:02 23.1 C 31 % 5.06 C
105 04-08-2008 20:49:02 22.5 C 35 % 6.29 C
106 04-08-2008 21:01:01 21.8 C 36 % 6.08 C
107 04-08-2008 21:13:01 21.5 C 38 % 6.6 C
108 04-08-2008 21:25:02 21 C 39 % 6.53 C
109 04-08-2008 21:37:01 20.6 C 40 % 6.54 C
110 04-08-2008 21:49:03 20.4 C 41 % 6.72 C
111 04-08-2008 22:01:02 20.3 C 42 % 6.98 C
112 04-08-2008 22:13:02 19.9 C 44 % 7.3 C
113 04-08-2008 22:25:03 19.5 C 45 % 7.26 C
114 04-08-2008 22:38:13 19.3 C 47 % 7.72 C
115 04-08-2008 22:50:13 19.2 C 47 % 7.63 C
116 04-08-2008 23:02:13 19.2 C 48 % 7.93 C
117 04-08-2008 23:14:13 19.3 C 47 % 7.72 C
118 04-08-2008 23:26:13 19.1 C 49 % 8.15 C
119 04-08-2008 23:38:13 18.9 C 50 % 8.26 C
120 04-08-2008 23:50:13 18.5 C 52 % 8.47 C
121 05-08-2008 00:02:13 18.4 C 52 % 8.38 C
122 05-08-2008 00:14:14 18.2 C 53 % 8.47 C
123 05-08-2008 00:26:14 18.1 C 54 % 8.65 C
124 05-08-2008 00:38:14 17.7 C 58 % 9.34 C
125 05-08-2008 00:50:14 17.4 C 58 % 9.06 C
Sensor: Nr:Datum:Temp:Feuchte:Taupunkt:
Aussen-T/F 126 05-08-2008 01:02:14 17.2 C 59 % 9.13 C
127 05-08-2008 01:14:14 16.8 C 62 % 9.49 C
128 05-08-2008 01:26:14 16.6 C 62 % 9.3 C
129 05-08-2008 01:38:14 16.4 C 64 % 9.58 C
130 05-08-2008 01:50:14 16.2 C 65 % 9.62 C
131 05-08-2008 02:02:14 16 C 66 % 9.66 C
132 05-08-2008 02:14:14 15.8 C 67 % 9.69 C
133 05-08-2008 02:26:14 15.6 C 67 % 9.5 C
134 05-08-2008 02:38:14 15.5 C 69 % 9.84 C
135 05-08-2008 02:50:14 15.4 C 67 % 9.31 C
136 05-08-2008 03:02:14 15.2 C 65 % 8.67 C
137 05-08-2008 03:14:14 15.3 C 66 % 8.99 C
138 05-08-2008 03:26:14 15.1 C 65 % 8.58 C
139 05-08-2008 03:38:14 15 C 67 % 8.93 C
140 05-08-2008 03:50:14 14.8 C 69 % 9.17 C
141 05-08-2008 04:02:14 14.7 C 68 % 8.86 C
142 05-08-2008 04:14:14 14.7 C 65 % 8.2 C
143 05-08-2008 04:26:15 14.5 C 69 % 8.89 C
144 05-08-2008 04:38:15 14.2 C 70 % 8.81 C
145 05-08-2008 04:50:15 14.2 C 69 % 8.6 C
146 05-08-2008 05:02:15 14.1 C 68 % 8.29 C
147 05-08-2008 05:14:15 14 C 69 % 8.41 C
148 05-08-2008 05:26:15 13.9 C 72 % 8.94 C
149 05-08-2008 05:38:15 13.7 C 73 % 8.95 C
150 05-08-2008 05:50:15 13.5 C 73 % 8.76 C
Sensor: Nr:Datum:Temp:Feuchte:Taupunkt:
Aussen-T/F 151 05-08-2008 06:02:15 13.5 C 73 % 8.76 C
152 05-08-2008 06:14:15 13.4 C 74 % 8.87 C
153 05-08-2008 06:26:15 13.4 C 74 % 8.87 C
154 05-08-2008 06:38:15 13.4 C 74 % 8.87 C
155 05-08-2008 06:50:15 13.5 C 74 % 8.96 C
156 05-08-2008 07:02:15 13.6 C 74 % 9.06 C
157 05-08-2008 07:14:15 13.7 C 74 % 9.15 C
158 05-08-2008 07:26:15 13.9 C 73 % 9.15 C
159 05-08-2008 07:38:15 14.2 C 71 % 9.02 C
160 05-08-2008 07:50:15 14.4 C 69 % 8.79 C
161 05-08-2008 08:02:15 14.6 C 69 % 8.98 C
162 05-08-2008 08:14:15 14.8 C 68 % 8.96 C
163 05-08-2008 08:26:15 15 C 66 % 8.71 C
164 05-08-2008 08:38:03 15.4 C 65 % 8.86 C
165 05-08-2008 08:50:03 15.6 C 63 % 8.59 C
166 05-08-2008 09:02:03 15.7 C 64 % 8.92 C
167 05-08-2008 09:14:03 16.1 C 62 % 8.82 C
168 05-08-2008 09:26:02 16.4 C 61 % 8.87 C
169 05-08-2008 09:38:02 16.8 C 60 % 9 C
170 05-08-2008 09:50:02 17.2 C 58 % 8.87 C
171 05-08-2008 10:02:03 17.9 C 57 % 9.27 C
172 05-08-2008 10:14:03 18 C 55 % 8.83 C
173 05-08-2008 10:26:02 18.4 C 54 % 8.93 C
174 05-08-2008 10:38:03 19.1 C 52 % 9.02 C
175 05-08-2008 10:50:03 19.8 C 49 % 8.79 C
Sensor: Nr:Datum:Temp:Feuchte:Taupunkt:
Aussen-T/F 176 05-08-2008 11:02:02 20.1 C 47 % 8.45 C
177 05-08-2008 11:14:03 20.5 C 46 % 8.49 C
178 05-08-2008 11:26:02 21.1 C 45 % 8.71 C
179 05-08-2008 11:38:03 22.7 C 39 % 8.04 C
180 05-08-2008 11:50:02 22.2 C 41 % 8.33 C
181 05-08-2008 12:02:02 22.7 C 41 % 8.78 C
182 05-08-2008 12:14:02 23.8 C 37 % 8.25 C
183 05-08-2008 12:26:02 24 C 36 % 8.02 C
184 05-08-2008 12:38:02 24.5 C 35 % 8.05 C
185 05-08-2008 12:50:01 24.3 C 34 % 7.45 C
186 05-08-2008 13:02:03 24.8 C 32 % 7 C
187 05-08-2008 13:14:03 24.6 C 32 % 6.82 C
188 05-08-2008 13:26:02 24.4 C 33 % 7.1 C
189 05-08-2008 13:38:02 25 C 32 % 7.17 C
190 05-08-2008 13:50:01 25.2 C 32 % 7.34 C
191 05-08-2008 14:02:02 25.9 C 31 % 7.49 C
192 05-08-2008 14:14:02 26.5 C 28 % 6.52 C
193 05-08-2008 14:26:02 26.9 C 26 % 5.79 C
194 05-08-2008 14:38:02 26.8 C 27 % 6.25 C
195 05-08-2008 14:50:01 27.5 C 25 % 5.73 C
196 05-08-2008 15:02:02 26.9 C 26 % 5.79 C
197 05-08-2008 15:14:02 26.7 C 26 % 5.62 C
198 05-08-2008 15:26:02 26.2 C 29 % 6.77 C
199 05-08-2008 15:38:01 25.8 C 30 % 6.92 C
200 05-08-2008 15:50:01 26.3 C 29 % 6.86 C
Sensor: Nr:Datum:Temp:Feuchte:Taupunkt:
Aussen-T/F 201 05-08-2008 16:02:02 26.6 C 28 % 6.61 C
202 05-08-2008 16:14:02 26.6 C 29 % 7.12 C
203 05-08-2008 16:26:01 27.6 C 27 % 6.93 C
204 05-08-2008 16:38:02 28.5 C 25 % 6.57 C
205 05-08-2008 16:50:02 28.6 C 25 % 6.66 C
206 05-08-2008 17:02:02 29.1 C 22 % 5.23 C
207 05-08-2008 17:14:02 29.6 C 22 % 5.64 C
208 05-08-2008 17:26:02 27.9 C 25 % 6.07 C
209 05-08-2008 17:38:02 27.2 C 26 % 6.04 C
210 05-08-2008 17:50:02 28.3 C 25 % 6.4 C
211 05-08-2008 18:02:02 28.8 C 23 % 5.62 C
212 05-08-2008 18:14:02 27.1 C 25 % 5.39 C
213 05-08-2008 18:26:02 26.7 C 30 % 7.7 C
214 05-08-2008 18:38:02 26.6 C 32 % 8.56 C
215 05-08-2008 18:50:02 26.2 C 32 % 8.21 C
216 05-08-2008 19:02:01 25.8 C 32 % 7.87 C
217 05-08-2008 19:14:01 25.9 C 33 % 8.4 C
218 05-08-2008 19:26:02 25.6 C 34 % 8.58 C
219 05-08-2008 19:38:01 25.1 C 36 % 8.99 C
220 05-08-2008 19:50:01 24.7 C 37 % 9.04 C
221 05-08-2008 20:02:02 24.7 C 37 % 9.04 C
222 05-08-2008 20:14:02 24.1 C 37 % 8.51 C
223 05-08-2008 20:26:02 23.5 C 39 % 8.76 C
224 05-08-2008 20:38:01 22.9 C 42 % 9.32 C
225 05-08-2008 20:50:02 22.4 C 42 % 8.87 C
Sensor: Nr:Datum:Temp:Feuchte:Taupunkt:
Aussen-T/F 226 05-08-2008 21:02:03 21.9 C 45 % 9.44 C
227 05-08-2008 21:14:03 21.5 C 46 % 9.4 C
228 05-08-2008 21:26:03 21.2 C 46 % 9.13 C
229 05-08-2008 21:38:02 21 C 46 % 8.95 C
230 05-08-2008 21:50:03 20.9 C 50 % 10.1 C
231 05-08-2008 22:02:02 21 C 49 % 9.89 C
232 05-08-2008 22:14:02 20.8 C 50 % 10 C
233 05-08-2008 22:26:03 20.6 C 51 % 10.12 C
234 05-08-2008 22:39:03 20.3 C 52 % 10.13 C
235 05-08-2008 22:51:03 20 C 51 % 9.56 C
236 05-08-2008 23:03:03 19.9 C 52 % 9.76 C
237 05-08-2008 23:15:03 19.5 C 53 % 9.67 C
238 05-08-2008 23:27:03 19.3 C 53 % 9.49 C
239 05-08-2008 23:39:03 19.2 C 55 % 9.95 C
240 05-08-2008 23:51:03 18.9 C 57 % 10.2 C
241 06-08-2008 00:03:04 18.9 C 57 % 10.2 C
242 06-08-2008 00:15:04 18.7 C 57 % 10.02 C
243 06-08-2008 00:27:04 18.7 C 58 % 10.28 C
244 06-08-2008 00:39:04 18.6 C 59 % 10.44 C
245 06-08-2008 00:51:04 18.4 C 59 % 10.25 C
246 06-08-2008 01:03:04 18.3 C 59 % 10.16 C
247 06-08-2008 01:15:04 18.1 C 61 % 10.47 C
248 06-08-2008 01:27:04 17.9 C 62 % 10.52 C
249 06-08-2008 01:39:04 17.9 C 63 % 10.76 C
250 06-08-2008 01:51:04 17.7 C 64 % 10.81 C
Sensor: Nr:Datum:Temp:Feuchte:Taupunkt:
Aussen-T/F 251 06-08-2008 02:03:04 17.6 C 64 % 10.72 C
252 06-08-2008 02:15:04 17.5 C 64 % 10.62 C
253 06-08-2008 02:27:04 17.4 C 64 % 10.53 C
254 06-08-2008 02:39:04 17.5 C 65 % 10.85 C
255 06-08-2008 02:51:04 17.6 C 64 % 10.72 C
256 06-08-2008 03:03:04 17.4 C 65 % 10.76 C
257 06-08-2008 03:15:04 17 C 65 % 10.38 C
258 06-08-2008 03:27:04 16.8 C 68 % 10.87 C
259 06-08-2008 03:39:04 16.7 C 69 % 10.99 C
260 06-08-2008 03:51:05 16.6 C 69 % 10.89 C
261 06-08-2008 04:03:05 16.6 C 69 % 10.89 C
262 06-08-2008 04:15:05 16.6 C 69 % 10.89 C
263 06-08-2008 04:27:05 16.4 C 70 % 10.92 C
264 06-08-2008 04:39:05 16.2 C 71 % 10.94 C
265 06-08-2008 04:51:05 16 C 72 % 10.96 C
266 06-08-2008 05:03:05 15.9 C 73 % 11.07 C
267 06-08-2008 05:15:05 15.7 C 73 % 10.88 C
268 06-08-2008 05:27:05 15.6 C 74 % 10.99 C
269 06-08-2008 05:39:05 15.4 C 74 % 10.79 C
270 06-08-2008 05:51:05 15.3 C 75 % 10.9 C
271 06-08-2008 06:03:05 15.2 C 75 % 10.8 C
272 06-08-2008 06:15:05 15.2 C 77 % 11.2 C
273 06-08-2008 06:27:05 15.1 C 77 % 11.1 C
274 06-08-2008 06:39:05 14.9 C 78 % 11.1 C
275 06-08-2008 06:51:02 14.9 C 78 % 11.1 C
Sensor: Nr:Datum:Temp:Feuchte:Taupunkt:
Aussen-T/F 276 06-08-2008 07:03:01 15.2 C 78 % 11.39 C
277 06-08-2008 07:15:02 15.3 C 78 % 11.49 C
278 06-08-2008 07:27:02 15.5 C 78 % 11.68 C
279 06-08-2008 07:39:01 15.6 C 77 % 11.59 C
280 06-08-2008 07:51:02 15.8 C 77 % 11.78 C
281 06-08-2008 08:03:01 15.9 C 76 % 11.68 C
282 06-08-2008 08:15:02 16.2 C 75 % 11.77 C
283 06-08-2008 08:27:02 16.4 C 74 % 11.76 C
284 06-08-2008 08:39:01 16.6 C 74 % 11.95 C
285 06-08-2008 08:51:01 16.9 C 72 % 11.82 C
286 06-08-2008 09:03:01 17.3 C 69 % 11.56 C
287 06-08-2008 09:15:02 17.8 C 69 % 12.04 C
288 06-08-2008 09:27:02 18.3 C 66 % 11.84 C
289 06-08-2008 09:39:01 18.9 C 66 % 12.41 C
290 06-08-2008 09:51:01 19.3 C 64 % 12.32 C
291 06-08-2008 10:03:01 20 C 61 % 12.26 C
292 06-08-2008 10:15:01 20.9 C 58 % 12.33 C
293 06-08-2008 10:27:01 21.7 C 53 % 11.71 C
294 06-08-2008 10:39:01 22.2 C 51 % 11.59 C
295 06-08-2008 10:51:01 23.2 C 48 % 11.59 C
296 06-08-2008 11:03:02 23.7 C 48 % 12.04 C
297 06-08-2008 11:15:01 24.3 C 43 % 10.93 C
298 06-08-2008 11:27:01 25.1 C 40 % 10.56 C
299 06-08-2008 11:39:02 25.8 C 39 % 10.8 C
300 06-08-2008 11:51:02 26.1 C 37 % 10.28 C
Sensor: Nr:Datum:Temp:Feuchte:Taupunkt:
Aussen-T/F 301 06-08-2008 12:03:02 26.9 C 37 % 10.99 C
302 06-08-2008 12:15:01 27.1 C 34 % 9.89 C
303 06-08-2008 12:27:01 27.6 C 34 % 10.33 C
304 06-08-2008 12:39:02 28.1 C 32 % 9.86 C
305 06-08-2008 12:51:02 27.8 C 32 % 9.6 C
306 06-08-2008 13:03:02 28.9 C 31 % 10.08 C
307 06-08-2008 13:15:02 30 C 27 % 8.97 C
308 06-08-2008 13:27:02 30.6 C 26 % 8.92 C
309 06-08-2008 13:39:02 30.6 C 25 % 8.34 C
310 06-08-2008 13:51:02 30.9 C 25 % 8.59 C
311 06-08-2008 14:03:01 31 C 25 % 8.67 C
312 06-08-2008 14:15:02 31.1 C 25 % 8.76 C
313 06-08-2008 14:27:02 30.7 C 27 % 9.56 C
314 06-08-2008 14:39:02 31.3 C 24 % 8.32 C
315 06-08-2008 14:51:02 31.5 C 23 % 7.87 C
316 06-08-2008 15:03:02 32.1 C 22 % 7.71 C
317 06-08-2008 15:15:02 32.3 C 20 % 6.49 C
318 06-08-2008 15:27:03 32 C 21 % 6.95 C
319 06-08-2008 15:39:02 32.5 C 20 % 6.65 C
320 06-08-2008 15:51:02 32.7 C 20 % 6.81 C
321 06-08-2008 16:03:02 33 C 20 % 7.06 C
322 06-08-2008 16:15:02 33.2 C 20 % 7.22 C
323 06-08-2008 16:27:02 33.5 C 20 % 7.47 C
324 06-08-2008 16:39:02 33.6 C 20 % 7.55 C
325 06-08-2008 16:51:02 33.7 C 20 % 7.63 C
Sensor: Nr:Datum:Temp:Feuchte:Taupunkt:
Aussen-T/F 326 06-08-2008 17:03:02 33.9 C 20 % 7.8 C
327 06-08-2008 17:15:02 33.9 C 20 % 7.8 C
328 06-08-2008 17:27:02 33.6 C 20 % 7.55 C
329 06-08-2008 17:39:02 33.7 C 20 % 7.63 C
330 06-08-2008 17:51:02 33.8 C 20 % 7.71 C
331 06-08-2008 18:03:02 34 C 20 % 7.88 C
332 06-08-2008 18:15:02 34.2 C 20 % 8.04 C
333 06-08-2008 18:27:02 33.9 C 20 % 7.8 C
334 06-08-2008 18:39:02 34 C 20 % 7.88 C
335 06-08-2008 18:51:02 33.9 C 20 % 7.8 C
336 06-08-2008 19:03:01 33.9 C 20 % 7.8 C
337 06-08-2008 19:15:02 33.3 C 20 % 7.3 C
338 06-08-2008 19:27:02 33.3 C 21 % 8.02 C
339 06-08-2008 19:39:02 32.7 C 21 % 7.53 C
340 06-08-2008 19:51:02 31.6 C 26 % 9.76 C
341 06-08-2008 20:03:02 30.6 C 30 % 11.05 C
342 06-08-2008 20:15:02 30.1 C 31 % 11.12 C
343 06-08-2008 20:27:03 29.5 C 32 % 11.07 C
344 06-08-2008 20:39:02 28.9 C 33 % 11.02 C
345 06-08-2008 20:51:02 28.4 C 34 % 11.03 C
346 06-08-2008 21:03:02 27.8 C 34 % 10.51 C
347 06-08-2008 21:15:03 27.3 C 35 % 10.5 C
348 06-08-2008 21:27:03 27 C 35 % 10.24 C
349 06-08-2008 21:39:02 26.7 C 36 % 10.4 C
350 06-08-2008 21:51:01 26.6 C 37 % 10.72 C
Sensor: Nr:Datum:Temp:Feuchte:Taupunkt:
Aussen-T/F 351 06-08-2008 22:03:01 26.6 C 36 % 10.31 C
352 06-08-2008 22:15:01 26.4 C 37 % 10.54 C
353 06-08-2008 22:27:01 26 C 39 % 10.98 C
354 06-08-2008 22:40:02 25.8 C 39 % 10.8 C
355 06-08-2008 22:52:02 25.6 C 39 % 10.62 C
356 06-08-2008 23:04:02 25.1 C 40 % 10.56 C
357 06-08-2008 23:16:02 24.8 C 43 % 11.38 C
358 06-08-2008 23:28:02 24.5 C 45 % 11.79 C
359 06-08-2008 23:40:02 24.1 C 45 % 11.43 C
360 06-08-2008 23:52:02 24 C 46 % 11.67 C
361 07-08-2008 00:04:02 23.7 C 46 % 11.4 C
362 07-08-2008 00:16:02 23.6 C 48 % 11.95 C
363 07-08-2008 00:28:02 23.3 C 49 % 11.99 C
364 07-08-2008 00:40:02 23 C 50 % 12.02 C
365 07-08-2008 00:52:02 22.7 C 52 % 12.34 C
366 07-08-2008 01:04:02 22.5 C 53 % 12.45 C
367 07-08-2008 01:16:02 22.3 C 54 % 12.55 C
368 07-08-2008 01:28:02 22.1 C 55 % 12.64 C
369 07-08-2008 01:40:02 21.9 C 57 % 13 C
370 07-08-2008 01:52:03 21.7 C 58 % 13.08 C
371 07-08-2008 02:04:03 21.4 C 59 % 13.06 C
372 07-08-2008 02:16:03 21.3 C 59 % 12.97 C
373 07-08-2008 02:28:03 21.1 C 60 % 13.04 C
374 07-08-2008 02:40:03 20.9 C 62 % 13.35 C
375 07-08-2008 02:52:03 20.7 C 63 % 13.41 C
Sensor: Nr:Datum:Temp:Feuchte:Taupunkt:
Aussen-T/F 376 07-08-2008 03:04:03 20.6 C 63 % 13.31 C
377 07-08-2008 03:16:03 20.4 C 63 % 13.12 C
378 07-08-2008 03:28:03 20.3 C 64 % 13.27 C
379 07-08-2008 03:40:03 20.3 C 64 % 13.27 C
380 07-08-2008 03:52:03 20.2 C 64 % 13.18 C
381 07-08-2008 04:04:03 19.9 C 66 % 13.36 C
382 07-08-2008 04:16:03 19.7 C 67 % 13.4 C
383 07-08-2008 04:28:03 19.6 C 67 % 13.31 C
384 07-08-2008 04:40:03 19.4 C 68 % 13.34 C
385 07-08-2008 04:52:03 19.3 C 69 % 13.47 C
386 07-08-2008 05:04:03 19.3 C 69 % 13.47 C
387 07-08-2008 05:16:03 19.1 C 70 % 13.5 C
388 07-08-2008 05:28:03 18.8 C 72 % 13.65 C
389 07-08-2008 05:40:03 18.8 C 72 % 13.65 C
390 07-08-2008 05:52:04 18.6 C 73 % 13.67 C
391 07-08-2008 06:04:04 18.6 C 73 % 13.67 C
392 07-08-2008 06:16:04 18.5 C 74 % 13.78 C
393 07-08-2008 06:28:04 18.4 C 74 % 13.68 C
394 07-08-2008 06:40:04 18.3 C 74 % 13.59 C
395 07-08-2008 06:52:04 18.5 C 75 % 13.99 C
396 07-08-2008 07:04:03 18.7 C 75 % 14.18 C
397 07-08-2008 07:16:02 18.8 C 74 % 14.07 C
398 07-08-2008 07:28:02 18.6 C 75 % 14.08 C
399 07-08-2008 07:40:02 18.8 C 75 % 14.28 C
400 07-08-2008 07:52:02 19.1 C 73 % 14.15 C
Sensor: Nr:Datum:Temp:Feuchte:Taupunkt:
Aussen-T/F 401 07-08-2008 08:04:02 19.2 C 73 % 14.25 C
402 07-08-2008 08:16:02 19.6 C 72 % 14.42 C
403 07-08-2008 08:28:02 19.9 C 71 % 14.49 C
404 07-08-2008 08:40:02 20.3 C 69 % 14.43 C
405 07-08-2008 08:52:02 20.9 C 68 % 14.77 C
406 07-08-2008 09:04:02 21.6 C 66 % 14.98 C
407 07-08-2008 09:16:02 22.5 C 63 % 15.11 C
408 07-08-2008 09:28:02 23 C 60 % 14.82 C
409 07-08-2008 09:40:02 23.7 C 59 % 15.21 C
410 07-08-2008 09:52:03 24.2 C 57 % 15.14 C
411 07-08-2008 10:04:02 24.7 C 54 % 14.77 C
412 07-08-2008 10:16:02 25.3 C 49 % 13.82 C
413 07-08-2008 10:28:02 26.2 C 46 % 13.67 C
414 07-08-2008 10:40:02 26.8 C 45 % 13.87 C
415 07-08-2008 10:52:02 27.2 C 43 % 13.54 C
416 07-08-2008 11:04:02 27.4 C 43 % 13.72 C
417 07-08-2008 11:16:02 28 C 42 % 13.89 C
418 07-08-2008 11:28:02 28.3 C 40 % 13.41 C
419 07-08-2008 11:40:02 28.3 C 41 % 13.79 C
420 07-08-2008 11:52:02 28.7 C 38 % 12.98 C
421 07-08-2008 12:04:02 29.1 C 37 % 12.93 C
422 07-08-2008 12:16:02 29.1 C 37 % 12.93 C
423 07-08-2008 12:28:02 28.7 C 38 % 12.98 C
424 07-08-2008 12:40:02 29.3 C 36 % 12.68 C
425 07-08-2008 12:52:02 29.9 C 35 % 12.78 C
Sensor: Nr:Datum:Temp:Feuchte:Taupunkt:
Aussen-T/F 426 07-08-2008 13:04:02 30.4 C 34 % 12.78 C
427 07-08-2008 13:16:02 30.6 C 32 % 12.03 C
428 07-08-2008 13:28:02 30.4 C 33 % 12.32 C
429 07-08-2008 13:40:02 29.6 C 34 % 12.08 C
430 07-08-2008 13:52:01 29.8 C 35 % 12.69 C
431 07-08-2008 14:04:02 29.4 C 36 % 12.77 C
432 07-08-2008 14:16:01 29.8 C 35 % 12.69 C
433 07-08-2008 14:28:01 28.8 C 37 % 12.66 C
434 07-08-2008 14:40:02 28.1 C 38 % 12.45 C
435 07-08-2008 14:52:02 28.4 C 38 % 12.72 C
436 07-08-2008 15:04:02 28 C 38 % 12.36 C
437 07-08-2008 15:16:02 28.2 C 39 % 12.93 C
438 07-08-2008 15:28:02 28.5 C 37 % 12.4 C
439 07-08-2008 15:40:02 29.2 C 34 % 11.73 C
440 07-08-2008 15:52:01 29.1 C 32 % 10.73 C
441 07-08-2008 16:04:02 29.3 C 33 % 11.37 C
442 07-08-2008 16:16:01 28.7 C 35 % 11.73 C
443 07-08-2008 16:28:01 29.3 C 33 % 11.37 C
444 07-08-2008 16:40:02 29.4 C 32 % 10.99 C
445 07-08-2008 16:52:02 30.4 C 30 % 10.88 C
446 07-08-2008 17:04:01 30.7 C 29 % 10.63 C
447 07-08-2008 17:16:02 30.1 C 29 % 10.12 C
448 07-08-2008 17:28:02 29.4 C 30 % 10.02 C
449 07-08-2008 17:40:01 29.4 C 30 % 10.02 C
450 07-08-2008 17:52:02 28.7 C 30 % 9.42 C
Sensor: Nr:Datum:Temp:Feuchte:Taupunkt:
Aussen-T/F 451 07-08-2008 18:04:01 30.1 C 28 % 9.59 C
452 07-08-2008 18:16:02 29.9 C 27 % 8.88 C
453 07-08-2008 18:28:03 28.8 C 30 % 9.51 C
454 07-08-2008 18:40:01 28.6 C 31 % 9.82 C
455 07-08-2008 18:52:02 28.5 C 31 % 9.73 C
456 07-08-2008 19:04:01 28.3 C 31 % 9.56 C
457 07-08-2008 19:16:02 27.7 C 32 % 9.51 C
458 07-08-2008 19:28:02 27.1 C 33 % 9.45 C
459 07-08-2008 19:40:01 26.9 C 35 % 10.15 C
460 07-08-2008 19:52:02 26.6 C 36 % 10.31 C
461 07-08-2008 20:04:02 26.7 C 36 % 10.4 C
462 07-08-2008 20:16:02 27.2 C 34 % 9.98 C
463 07-08-2008 20:28:02 26.1 C 36 % 9.87 C
464 07-08-2008 20:40:02 25.4 C 37 % 9.66 C
465 07-08-2008 20:52:02 24.8 C 37 % 9.13 C
466 07-08-2008 21:04:02 24.6 C 37 % 8.95 C
467 07-08-2008 21:16:02 24.3 C 38 % 9.08 C
468 07-08-2008 21:28:02 24 C 39 % 9.2 C
469 07-08-2008 21:40:02 23.7 C 41 % 9.68 C
470 07-08-2008 21:52:02 23.4 C 42 % 9.77 C
471 07-08-2008 22:04:02 23.3 C 42 % 9.68 C
472 07-08-2008 22:17:02 23.3 C 41 % 9.32 C
473 07-08-2008 22:29:02 23.1 C 40 % 8.77 C
474 07-08-2008 22:41:02 23 C 41 % 9.05 C
475 07-08-2008 22:53:02 20.4 C 61 % 12.63 C
Sensor: Nr:Datum:Temp:Feuchte:Taupunkt:
Aussen-T/F 476 07-08-2008 23:05:02 19.2 C 77 % 15.07 C
477 07-08-2008 23:17:02 18.5 C 81 % 15.18 C
478 07-08-2008 23:29:01 17.9 C 83 % 14.97 C
479 07-08-2008 23:41:01 17.8 C 85 % 15.25 C
480 07-08-2008 23:53:02 17.9 C 85 % 15.34 C
481 08-08-2008 00:05:02 18.2 C 84 % 15.45 C
482 08-08-2008 00:17:02 18.2 C 83 % 15.27 C
483 08-08-2008 00:29:02 17.9 C 83 % 14.97 C
484 08-08-2008 00:41:02 17.8 C 83 % 14.88 C
485 08-08-2008 00:53:03 17.7 C 83 % 14.78 C
486 08-08-2008 01:05:03 17.6 C 83 % 14.68 C
487 08-08-2008 01:17:03 17.6 C 83 % 14.68 C
488 08-08-2008 01:41:03 17.7 C 82 % 14.59 C
489 08-08-2008 01:53:03 17.7 C 82 % 14.59 C
490 08-08-2008 02:05:03 17.7 C 81 % 14.4 C
491 08-08-2008 02:29:03 17.8 C 82 % 14.69 C
492 08-08-2008 02:41:04 17.7 C 82 % 14.59 C
493 08-08-2008 02:53:04 17.7 C 82 % 14.59 C
494 08-08-2008 03:05:34 17.6 C 82 % 14.49 C
495 08-08-2008 03:17:34 17.7 C 82 % 14.59 C
496 08-08-2008 03:29:34 17.7 C 82 % 14.59 C
497 08-08-2008 03:41:04 17.7 C 82 % 14.59 C
498 08-08-2008 03:53:05 17.8 C 81 % 14.5 C
499 08-08-2008 04:05:05 18.1 C 78 % 14.21 C
500 08-08-2008 04:17:35 18 C 77 % 13.91 C
Sensor: Nr:Datum:Temp:Feuchte:Taupunkt:
Aussen-T/F 501 08-08-2008 04:29:35 17.9 C 77 % 13.81 C
502 08-08-2008 04:41:02 17.9 C 76 % 13.61 C
503 08-08-2008 04:53:02 17.7 C 76 % 13.42 C
504 08-08-2008 05:05:02 17.7 C 76 % 13.42 C
505 08-08-2008 05:17:02 17.7 C 76 % 13.42 C
506 08-08-2008 05:29:01 17.6 C 77 % 13.52 C
507 08-08-2008 05:41:01 17.7 C 76 % 13.42 C
508 08-08-2008 05:53:02 17.7 C 75 % 13.22 C
509 08-08-2008 06:05:02 17.6 C 75 % 13.12 C
510 08-08-2008 06:17:02 17.7 C 74 % 13.01 C
511 08-08-2008 06:29:02 17.8 C 74 % 13.11 C
512 08-08-2008 06:41:02 17.7 C 76 % 13.42 C
513 08-08-2008 06:53:33 17.1 C 80 % 13.62 C
514 08-08-2008 07:05:33 17.2 C 80 % 13.72 C
515 08-08-2008 07:17:33 17.7 C 77 % 13.62 C
516 08-08-2008 07:29:33 18 C 73 % 13.09 C
517 08-08-2008 07:41:33 17.7 C 74 % 13.01 C
518 08-08-2008 07:53:33 16.6 C 83 % 13.7 C
519 08-08-2008 08:17:34 16.3 C 86 % 13.95 C
520 08-08-2008 08:29:34 16.6 C 87 % 14.43 C
521 08-08-2008 08:41:34 16.9 C 86 % 14.54 C
522 08-08-2008 09:05:34 17 C 81 % 13.72 C
523 08-08-2008 09:17:34 17 C 82 % 13.91 C
524 08-08-2008 09:29:34 16.8 C 83 % 13.9 C
525 08-08-2008 09:41:03 17.2 C 83 % 14.29 C
Sensor: Nr:Datum:Temp:Feuchte:Taupunkt:
Aussen-T/F 526 08-08-2008 09:53:03 17.5 C 81 % 14.2 C
527 08-08-2008 10:05:03 17.7 C 79 % 14.01 C
528 08-08-2008 10:17:02 17.7 C 77 % 13.62 C
529 08-08-2008 10:29:02 17.8 C 78 % 13.91 C
530 08-08-2008 10:41:02 18.2 C 76 % 13.9 C
531 08-08-2008 10:53:02 18.5 C 73 % 13.57 C
532 08-08-2008 11:05:02 18.8 C 73 % 13.86 C
533 08-08-2008 11:17:03 19.4 C 71 % 14.01 C
534 08-08-2008 11:29:03 20.3 C 67 % 13.97 C
535 08-08-2008 11:41:02 20.9 C 63 % 13.6 C
536 08-08-2008 11:53:02 21.9 C 57 % 13 C
537 08-08-2008 12:05:02 21.7 C 56 % 12.54 C
538 08-08-2008 12:17:03 21.4 C 58 % 12.8 C
539 08-08-2008 12:29:03 21.7 C 58 % 13.08 C
540 08-08-2008 12:41:02 16.9 C 74 % 12.24 C
541 08-08-2008 12:53:02 16 C 84 % 13.3 C
542 08-08-2008 13:05:02 17.8 C 87 % 15.61 C
543 08-08-2008 13:17:02 19.2 C 84 % 16.43 C
544 08-08-2008 13:29:02 20.9 C 72 % 15.66 C
545 08-08-2008 13:41:02 21.8 C 64 % 14.69 C
546 08-08-2008 13:53:01 20.8 C 72 % 15.57 C
547 08-08-2008 14:05:02 20.4 C 75 % 15.82 C
548 08-08-2008 14:17:02 20.3 C 80 % 16.74 C
549 08-08-2008 14:29:02 21.1 C 75 % 16.5 C
550 08-08-2008 14:41:02 22 C 71 % 16.5 C
Sensor: Nr:Datum:Temp:Feuchte:Taupunkt:
Aussen-T/F 551 08-08-2008 14:53:02 22.7 C 63 % 15.3 C
552 08-08-2008 15:05:02 21.7 C 63 % 14.35 C
553 08-08-2008 15:17:02 19.2 C 71 % 13.82 C
554 08-08-2008 15:29:03 20 C 75 % 15.43 C
555 08-08-2008 15:41:03 21.9 C 61 % 14.04 C
556 08-08-2008 15:53:03 22.1 C 59 % 13.72 C
557 08-08-2008 16:05:03 21.1 C 52 % 10.87 C
558 08-08-2008 16:17:02 21.1 C 54 % 11.44 C
559 08-08-2008 16:29:02 22.7 C 48 % 11.13 C
560 08-08-2008 16:41:02 22.1 C 47 % 10.27 C
561 08-08-2008 16:53:01 21.6 C 50 % 10.74 C
562 08-08-2008 17:05:01 21.8 C 48 % 10.31 C
563 08-08-2008 17:17:01 21.8 C 49 % 10.62 C
564 08-08-2008 17:29:01 21.4 C 49 % 10.25 C
565 08-08-2008 17:41:01 19.7 C 58 % 11.21 C
566 08-08-2008 17:53:02 18.7 C 69 % 12.9 C
567 08-08-2008 18:05:02 18.9 C 72 % 13.74 C
568 08-08-2008 18:17:02 19.5 C 67 % 13.21 C
569 08-08-2008 18:29:02 19.5 C 64 % 12.51 C
570 08-08-2008 18:41:02 19.4 C 63 % 12.18 C
571 08-08-2008 18:53:28 19.3 C 62 % 11.84 C
572 08-08-2008 19:05:02 19.4 C 62 % 11.94 C
573 08-08-2008 19:17:03 19.4 C 62 % 11.94 C
574 08-08-2008 19:29:03 19.3 C 62 % 11.84 C
575 08-08-2008 19:41:03 19.3 C 61 % 11.6 C
Sensor: Nr:Datum:Temp:Feuchte:Taupunkt:
Aussen-T/F 576 08-08-2008 19:53:02 19.3 C 61 % 11.6 C
577 08-08-2008 20:05:03 19 C 63 % 11.8 C
578 08-08-2008 20:17:02 17.8 C 73 % 12.9 C
579 08-08-2008 20:29:02 17.5 C 75 % 13.02 C
580 08-08-2008 20:41:03 16.8 C 81 % 13.52 C
581 08-08-2008 20:53:02 16.5 C 84 % 13.79 C
582 08-08-2008 21:05:02 16.4 C 86 % 14.05 C
583 08-08-2008 21:17:02 16.3 C 87 % 14.13 C
584 08-08-2008 21:29:01 16.3 C 88 % 14.31 C
585 08-08-2008 21:41:01 16.5 C 87 % 14.33 C
586 08-08-2008 21:54:01 16.6 C 86 % 14.25 C
587 08-08-2008 22:06:01 16.7 C 85 % 14.17 C
588 08-08-2008 22:18:01 16.7 C 84 % 13.98 C
589 08-08-2008 22:30:01 16.8 C 83 % 13.9 C
590 08-08-2008 22:42:01 16.4 C 83 % 13.51 C
591 08-08-2008 22:54:01 16.1 C 87 % 13.94 C
592 08-08-2008 23:06:01 16 C 88 % 14.01 C
593 08-08-2008 23:18:01 16 C 89 % 14.19 C
594 08-08-2008 23:30:02 16.1 C 90 % 14.46 C
595 08-08-2008 23:42:02 16.2 C 90 % 14.56 C
596 08-08-2008 23:54:02 16.1 C 89 % 14.29 C
597 09-08-2008 00:06:02 16 C 88 % 14.01 C
598 09-08-2008 00:18:02 16.1 C 88 % 14.11 C
599 09-08-2008 00:30:02 16.2 C 87 % 14.03 C
600 09-08-2008 00:42:02 16.2 C 86 % 13.86 C
Sensor: Nr:Datum:Temp:Feuchte:Taupunkt:
Aussen-T/F 601 09-08-2008 00:54:02 16.1 C 85 % 13.58 C
602 09-08-2008 01:06:02 15.9 C 85 % 13.38 C
603 09-08-2008 01:18:02 15.7 C 85 % 13.19 C
604 09-08-2008 01:30:02 15.4 C 86 % 13.07 C
605 09-08-2008 01:42:02 15.1 C 86 % 12.78 C
606 09-08-2008 01:54:02 14.9 C 88 % 12.93 C
607 09-08-2008 02:06:02 14.9 C 88 % 12.93 C
608 09-08-2008 02:18:02 14.7 C 88 % 12.73 C
609 09-08-2008 02:30:02 14.5 C 88 % 12.54 C
610 09-08-2008 02:42:02 14.5 C 88 % 12.54 C
611 09-08-2008 02:54:02 14.4 C 88 % 12.44 C
612 09-08-2008 03:06:02 14.4 C 88 % 12.44 C
613 09-08-2008 03:18:03 14.5 C 86 % 12.19 C
614 09-08-2008 03:30:03 14.5 C 83 % 11.65 C
615 09-08-2008 03:42:03 14.4 C 83 % 11.55 C
616 09-08-2008 03:54:03 14.4 C 83 % 11.55 C
617 09-08-2008 04:06:03 14.5 C 84 % 11.83 C
618 09-08-2008 04:18:03 14.5 C 84 % 11.83 C
619 09-08-2008 04:30:03 14.5 C 85 % 12.01 C
620 09-08-2008 04:42:03 14.6 C 85 % 12.11 C
621 09-08-2008 04:54:03 14.6 C 85 % 12.11 C
622 09-08-2008 05:06:03 14.7 C 84 % 12.03 C
623 09-08-2008 05:18:03 14.6 C 84 % 11.93 C
624 09-08-2008 05:30:03 14.6 C 84 % 11.93 C
625 09-08-2008 05:42:03 14.6 C 83 % 11.75 C
Sensor: Nr:Datum:Temp:Feuchte:Taupunkt:
Aussen-T/F 626 09-08-2008 05:54:03 14.7 C 81 % 11.48 C
627 09-08-2008 06:06:03 14.7 C 80 % 11.29 C
628 09-08-2008 06:18:03 14.9 C 77 % 10.91 C
629 09-08-2008 06:30:03 14.9 C 76 % 10.71 C
630 09-08-2008 06:42:03 14.9 C 76 % 10.71 C
631 09-08-2008 06:54:03 15 C 77 % 11 C
632 09-08-2008 07:06:03 15 C 76 % 10.81 C
633 09-08-2008 07:18:04 14.9 C 74 % 10.31 C
634 09-08-2008 07:30:04 14.8 C 74 % 10.22 C
635 09-08-2008 07:42:04 15 C 73 % 10.2 C
636 09-08-2008 07:54:04 15.1 C 72 % 10.09 C
637 09-08-2008 08:06:02 14.7 C 73 % 9.92 C
638 09-08-2008 08:18:02 14.7 C 75 % 10.32 C
639 09-08-2008 08:30:02 15.1 C 73 % 10.3 C
640 09-08-2008 08:42:01 15.7 C 68 % 9.82 C
641 09-08-2008 08:54:02 16.2 C 68 % 10.29 C
642 09-08-2008 09:06:02 16.3 C 65 % 9.71 C
643 09-08-2008 09:18:02 16.3 C 68 % 10.39 C
644 09-08-2008 09:30:02 16.8 C 68 % 10.87 C
645 09-08-2008 09:42:02 17.1 C 63 % 10.01 C
646 09-08-2008 09:54:02 16.6 C 64 % 9.77 C
647 09-08-2008 10:06:02 17.6 C 59 % 9.5 C
648 09-08-2008 10:18:01 17.9 C 53 % 8.19 C
649 09-08-2008 10:30:01 18.1 C 50 % 7.52 C
650 09-08-2008 10:42:02 18.5 C 50 % 7.89 C
Sensor: Nr:Datum:Temp:Feuchte:Taupunkt:
Aussen-T/F 651 09-08-2008 10:54:02 18.6 C 43 % 5.79 C
652 09-08-2008 11:06:02 19 C 47 % 7.44 C
653 09-08-2008 11:18:02 20.2 C 38 % 5.44 C
654 09-08-2008 11:30:02 19.9 C 42 % 6.62 C
655 09-08-2008 11:42:02 20.4 C 38 % 5.62 C
656 09-08-2008 11:54:02 20.7 C 36 % 5.11 C
657 09-08-2008 12:06:01 20.9 C 34 % 4.47 C
658 09-08-2008 12:18:02 21.9 C 32 % 4.48 C
659 09-08-2008 12:30:02 22.5 C 31 % 4.54 C
660 09-08-2008 12:42:01 21.5 C 32 % 4.13 C
661 09-08-2008 12:54:02 22.3 C 29 % 3.42 C
662 09-08-2008 13:06:01 22.4 C 28 % 3.01 C
663 09-08-2008 13:18:02 23.1 C 26 % 2.57 C
664 09-08-2008 13:30:02 23.5 C 25 % 2.36 C
665 09-08-2008 13:42:01 23.5 C 26 % 2.91 C
666 09-08-2008 13:54:03 22.9 C 25 % 1.85 C
667 09-08-2008 14:06:02 23.2 C 27 % 3.18 C
668 09-08-2008 14:18:03 23 C 26 % 2.48 C
669 09-08-2008 14:30:03 23.2 C 25 % 2.1 C
670 09-08-2008 14:42:02 24.4 C 25 % 3.12 C
671 09-08-2008 14:54:02 25.2 C 22 % 1.99 C
672 09-08-2008 15:06:03 24.3 C 25 % 3.03 C
673 09-08-2008 15:18:03 24.9 C 25 % 3.54 C
674 09-08-2008 15:30:03 25.6 C 23 % 2.95 C
675 09-08-2008 15:42:03 26.1 C 23 % 3.37 C
Sensor: Nr:Datum:Temp:Feuchte:Taupunkt:
Aussen-T/F 676 09-08-2008 15:54:02 26.1 C 22 % 2.74 C
677 09-08-2008 16:06:03 25.9 C 22 % 2.57 C
678 09-08-2008 16:18:02 25.9 C 25 % 4.38 C
679 09-08-2008 16:30:02 25.4 C 24 % 3.38 C
680 09-08-2008 16:42:03 24.8 C 26 % 4.01 C
681 09-08-2008 16:54:03 24.8 C 26 % 4.01 C
682 09-08-2008 17:06:02 26.3 C 24 % 4.14 C
683 09-08-2008 17:18:02 26.4 C 22 % 2.99 C
684 09-08-2008 17:30:02 25.4 C 25 % 3.96 C
685 09-08-2008 17:42:02 24.9 C 26 % 4.09 C
686 09-08-2008 17:54:01 26 C 25 % 4.47 C
687 09-08-2008 18:06:02 26.2 C 25 % 4.63 C
688 09-08-2008 18:18:01 25.2 C 26 % 4.35 C
689 09-08-2008 18:30:01 25 C 27 % 4.72 C
690 09-08-2008 18:42:02 25.9 C 26 % 4.94 C
691 09-08-2008 18:54:01 25.8 C 28 % 5.92 C
692 09-08-2008 19:06:02 25.3 C 29 % 6 C
693 09-08-2008 19:18:02 24.9 C 31 % 6.62 C
694 09-08-2008 19:30:02 23.9 C 33 % 6.66 C
695 09-08-2008 19:42:01 23.8 C 33 % 6.57 C
696 09-08-2008 19:54:01 23.3 C 35 % 6.99 C
697 09-08-2008 20:06:02 22.9 C 37 % 7.45 C
698 09-08-2008 20:18:01 22.3 C 39 % 7.69 C
699 09-08-2008 20:30:01 21.6 C 41 % 7.79 C
700 09-08-2008 20:42:02 21 C 42 % 7.61 C
Sensor: Nr:Datum:Temp:Feuchte:Taupunkt:
Aussen-T/F 701 09-08-2008 20:54:02 20.7 C 45 % 8.35 C
702 09-08-2008 21:06:02 20 C 46 % 8.04 C
703 09-08-2008 21:18:02 19.9 C 48 % 8.57 C
704 09-08-2008 21:30:02 19.8 C 48 % 8.48 C
705 09-08-2008 21:42:02 19.6 C 49 % 8.6 C
706 09-08-2008 21:54:02 19.5 C 50 % 8.81 C
707 09-08-2008 22:06:01 19.3 C 52 % 9.21 C
708 09-08-2008 22:18:02 19 C 54 % 9.49 C
709 09-08-2008 22:30:02 19 C 54 % 9.49 C
710 09-08-2008 22:42:01 18.9 C 57 % 10.2 C
711 09-08-2008 22:54:02 18.9 C 57 % 10.2 C
712 09-08-2008 23:06:01 18.8 C 58 % 10.37 C
713 09-08-2008 23:18:02 18.7 C 57 % 10.02 C
714 09-08-2008 23:30:02 18.4 C 59 % 10.25 C
715 09-08-2008 23:43:02 18.2 C 60 % 10.31 C
716 09-08-2008 23:55:02 18 C 61 % 10.37 C
717 10-08-2008 00:07:02 17.8 C 63 % 10.67 C
718 10-08-2008 00:19:02 17.7 C 63 % 10.57 C
719 10-08-2008 00:31:02 17.7 C 63 % 10.57 C
720 10-08-2008 00:43:02 17.9 C 64 % 11 C
721 10-08-2008 00:55:02 17.9 C 64 % 11 C
722 10-08-2008 01:07:02 18 C 63 % 10.86 C
723 10-08-2008 01:19:02 18.1 C 63 % 10.95 C
724 10-08-2008 01:31:02 17.9 C 64 % 11 C
725 10-08-2008 01:43:02 17.9 C 65 % 11.23 C
Sensor: Nr:Datum:Temp:Feuchte:Taupunkt:
Aussen-T/F 726 10-08-2008 01:55:02 18 C 64 % 11.09 C
727 10-08-2008 02:07:02 17.9 C 66 % 11.46 C
728 10-08-2008 02:19:02 17.7 C 67 % 11.5 C
729 10-08-2008 02:31:02 18 C 66 % 11.56 C
730 10-08-2008 02:43:02 18.1 C 63 % 10.95 C
731 10-08-2008 02:55:02 18.3 C 63 % 11.14 C
732 10-08-2008 03:07:02 18.3 C 62 % 10.9 C
733 10-08-2008 03:19:03 18.2 C 63 % 11.05 C
734 10-08-2008 03:31:03 18.2 C 63 % 11.05 C
735 10-08-2008 03:43:03 18.2 C 62 % 10.81 C
736 10-08-2008 03:55:03 17.7 C 67 % 11.5 C
737 10-08-2008 04:07:03 17.6 C 68 % 11.63 C
738 10-08-2008 04:19:03 18 C 63 % 10.86 C
739 10-08-2008 04:31:03 17.9 C 64 % 11 C
740 10-08-2008 04:43:03 18 C 63 % 10.86 C
741 10-08-2008 04:55:03 18 C 63 % 10.86 C
742 10-08-2008 05:07:03 18 C 63 % 10.86 C
743 10-08-2008 05:19:03 17.9 C 62 % 10.52 C
744 10-08-2008 05:31:03 17.9 C 62 % 10.52 C
745 10-08-2008 05:43:03 17.9 C 62 % 10.52 C
746 10-08-2008 05:55:03 18.2 C 60 % 10.31 C
747 10-08-2008 06:07:03 18.2 C 60 % 10.31 C
748 10-08-2008 06:19:03 18.2 C 59 % 10.06 C
749 10-08-2008 06:31:03 18.1 C 60 % 10.22 C
750 10-08-2008 06:43:03 17.5 C 67 % 11.31 C
Sensor: Nr:Datum:Temp:Feuchte:Taupunkt:
Aussen-T/F 751 10-08-2008 06:55:03 17.7 C 68 % 11.72 C
752 10-08-2008 07:07:04 17.9 C 66 % 11.46 C
753 10-08-2008 07:19:04 18.1 C 64 % 11.19 C
754 10-08-2008 07:31:04 18.1 C 64 % 11.19 C
755 10-08-2008 07:43:04 18.4 C 62 % 10.99 C
756 10-08-2008 07:55:04 18.8 C 60 % 10.88 C
757 10-08-2008 08:07:04 19.2 C 55 % 9.95 C
758 10-08-2008 08:19:04 19.4 C 54 % 9.86 C
759 10-08-2008 08:31:04 19.5 C 54 % 9.95 C
760 10-08-2008 08:43:04 19.7 C 53 % 9.86 C
761 10-08-2008 08:55:04 19.9 C 52 % 9.76 C
762 10-08-2008 09:07:02 19.9 C 53 % 10.04 C
763 10-08-2008 09:19:02 20.2 C 52 % 10.04 C
764 10-08-2008 09:31:02 20.2 C 51 % 9.75 C
765 10-08-2008 09:43:02 20.3 C 51 % 9.84 C
766 10-08-2008 09:55:02 20.1 C 52 % 9.94 C
767 10-08-2008 10:07:02 20 C 53 % 10.14 C
768 10-08-2008 10:19:02 19.9 C 57 % 11.14 C
769 10-08-2008 10:31:02 19.5 C 59 % 11.28 C
770 10-08-2008 10:43:02 19.6 C 60 % 11.63 C
771 10-08-2008 10:55:02 20 C 58 % 11.49 C
772 10-08-2008 11:07:02 20 C 56 % 10.96 C
773 10-08-2008 11:19:02 19 C 63 % 11.8 C
774 10-08-2008 11:31:02 18.8 C 67 % 12.55 C
775 10-08-2008 11:43:02 18.5 C 66 % 12.03 C
Sensor: Nr:Datum:Temp:Feuchte:Taupunkt:
Aussen-T/F 776 10-08-2008 11:58:02 19.3 C 61 % 11.6 C
777 10-08-2008 12:10:01 19.6 C 59 % 11.37 C
778 10-08-2008 12:22:02 20 C 56 % 10.96 C
779 10-08-2008 12:34:01 20.7 C 55 % 11.34 C
780 10-08-2008 12:46:02 20.9 C 51 % 10.39 C
781 10-08-2008 12:58:02 21.2 C 50 % 10.37 C
782 10-08-2008 13:10:02 21.5 C 47 % 9.72 C
783 10-08-2008 13:22:02 21.1 C 49 % 9.98 C
784 10-08-2008 13:34:02 21.5 C 48 % 10.04 C
785 10-08-2008 13:46:02 22.3 C 43 % 9.13 C
786 10-08-2008 13:58:02 22.8 C 41 % 8.87 C
787 10-08-2008 14:10:02 22.6 C 41 % 8.69 C
788 10-08-2008 14:22:02 22.4 C 41 % 8.51 C
789 10-08-2008 14:34:02 21.6 C 47 % 9.81 C
790 10-08-2008 14:46:02 20.7 C 53 % 10.78 C
791 10-08-2008 14:58:02 21.5 C 54 % 11.81 C
792 10-08-2008 15:10:01 22.6 C 46 % 10.4 C
793 10-08-2008 15:22:02 22.7 C 47 % 10.81 C
794 10-08-2008 15:34:01 22.6 C 49 % 11.35 C
795 10-08-2008 15:46:02 22.2 C 45 % 9.71 C
796 10-08-2008 15:58:02 22.6 C 41 % 8.69 C
797 10-08-2008 16:10:02 23.2 C 39 % 8.49 C
798 10-08-2008 16:22:02 24.5 C 36 % 8.46 C
799 10-08-2008 16:34:02 24 C 35 % 7.61 C
800 10-08-2008 16:46:02 23.8 C 36 % 7.84 C
Sensor: Nr:Datum:Temp:Feuchte:Taupunkt:
Aussen-T/F 801 10-08-2008 16:58:02 24 C 34 % 7.18 C
802 10-08-2008 17:10:02 23.8 C 36 % 7.84 C
803 10-08-2008 17:22:02 23.9 C 36 % 7.93 C
804 10-08-2008 17:34:01 24 C 34 % 7.18 C
805 10-08-2008 17:46:02 23.8 C 35 % 7.43 C
806 10-08-2008 17:58:02 23.7 C 37 % 8.16 C
807 10-08-2008 18:10:02 23.5 C 36 % 7.58 C
808 10-08-2008 18:22:01 23.7 C 37 % 8.16 C
809 10-08-2008 18:34:03 23.9 C 36 % 7.93 C
810 10-08-2008 18:46:03 23.6 C 37 % 8.07 C
811 10-08-2008 18:58:03 23.3 C 40 % 8.95 C
812 10-08-2008 19:10:02 23.3 C 40 % 8.95 C
813 10-08-2008 19:22:03 22.9 C 42 % 9.32 C
814 10-08-2008 19:34:02 22.5 C 42 % 8.96 C
815 10-08-2008 19:46:02 22.2 C 43 % 9.04 C
816 10-08-2008 19:58:02 21.9 C 47 % 10.09 C
817 10-08-2008 20:10:02 21.7 C 47 % 9.9 C
818 10-08-2008 20:22:02 21.3 C 49 % 10.16 C
819 10-08-2008 20:34:02 21 C 49 % 9.89 C
820 10-08-2008 20:46:02 21 C 50 % 10.19 C
821 10-08-2008 20:58:02 20.8 C 52 % 10.59 C
822 10-08-2008 21:10:03 20.6 C 52 % 10.41 C
823 10-08-2008 21:22:02 20.6 C 52 % 10.41 C
824 10-08-2008 21:34:03 20.4 C 54 % 10.79 C
825 10-08-2008 21:46:02 20.2 C 54 % 10.6 C
Sensor: Nr:Datum:Temp:Feuchte:Taupunkt:
Aussen-T/F 826 10-08-2008 21:58:03 20 C 55 % 10.69 C
827 10-08-2008 22:10:01 19.6 C 58 % 11.12 C
828 10-08-2008 22:23:02 19.4 C 59 % 11.19 C
829 10-08-2008 22:35:02 19.1 C 60 % 11.16 C
830 10-08-2008 22:47:02 19.1 C 61 % 11.41 C
831 10-08-2008 22:59:02 19 C 60 % 11.07 C
832 10-08-2008 23:11:02 18.8 C 61 % 11.13 C
833 10-08-2008 23:23:02 18.7 C 61 % 11.03 C
834 10-08-2008 23:35:03 18.5 C 61 % 10.84 C
835 10-08-2008 23:47:03 18.4 C 60 % 10.5 C
836 10-08-2008 23:59:03 18.3 C 58 % 9.9 C
837 11-08-2008 00:11:03 18.1 C 59 % 9.97 C
838 11-08-2008 00:23:03 18.1 C 60 % 10.22 C
839 11-08-2008 00:35:03 18.1 C 60 % 10.22 C
840 11-08-2008 00:47:03 18.1 C 60 % 10.22 C
841 11-08-2008 00:59:03 18.2 C 60 % 10.31 C
842 11-08-2008 01:11:03 18.4 C 59 % 10.25 C
843 11-08-2008 01:23:03 18.6 C 59 % 10.44 C
844 11-08-2008 01:35:03 18.7 C 59 % 10.53 C
845 11-08-2008 01:47:03 18.5 C 61 % 10.84 C
846 11-08-2008 01:59:03 18.3 C 62 % 10.9 C
847 11-08-2008 02:11:03 18 C 63 % 10.86 C
848 11-08-2008 02:23:03 17.6 C 66 % 11.18 C
849 11-08-2008 02:35:03 17.3 C 68 % 11.34 C
850 11-08-2008 02:47:03 17.4 C 69 % 11.66 C
Sensor: Nr:Datum:Temp:Feuchte:Taupunkt:
Aussen-T/F 851 11-08-2008 02:59:03 17.5 C 70 % 11.97 C
852 11-08-2008 03:11:03 17.5 C 71 % 12.19 C
853 11-08-2008 03:23:03 17.5 C 71 % 12.19 C
854 11-08-2008 03:35:04 17.7 C 70 % 12.16 C
855 11-08-2008 03:47:04 17.7 C 70 % 12.16 C
856 11-08-2008 03:59:04 17.5 C 70 % 11.97 C
857 11-08-2008 04:11:04 17.4 C 70 % 11.88 C
858 11-08-2008 04:23:04 17.1 C 70 % 11.59 C
859 11-08-2008 04:35:04 16.8 C 71 % 11.52 C
860 11-08-2008 04:47:04 16.6 C 71 % 11.32 C
861 11-08-2008 04:59:04 16 C 71 % 10.75 C
862 11-08-2008 05:11:04 15.7 C 72 % 10.67 C
863 11-08-2008 05:23:04 15.6 C 73 % 10.78 C
864 11-08-2008 05:35:04 15.9 C 71 % 10.65 C
865 11-08-2008 05:47:04 15.8 C 72 % 10.77 C
866 11-08-2008 05:59:04 15.4 C 73 % 10.59 C
867 11-08-2008 06:11:02 15.1 C 75 % 10.71 C
868 11-08-2008 06:23:02 14.8 C 78 % 11 C
869 11-08-2008 06:35:02 15 C 79 % 11.39 C
870 11-08-2008 06:47:02 15.2 C 78 % 11.39 C
871 11-08-2008 06:59:02 15 C 78 % 11.2 C
872 11-08-2008 07:11:02 14.9 C 80 % 11.48 C
873 11-08-2008 07:23:02 14.9 C 80 % 11.48 C
874 11-08-2008 07:35:02 15 C 80 % 11.58 C
875 11-08-2008 07:47:02 15.4 C 80 % 11.97 C
Sensor: Nr:Datum:Temp:Feuchte:Taupunkt:
Aussen-T/F 876 11-08-2008 07:59:02 15.6 C 78 % 11.78 C
877 11-08-2008 08:11:01 15.5 C 78 % 11.68 C
878 11-08-2008 08:23:02 15.9 C 78 % 12.07 C
879 11-08-2008 08:35:01 16.3 C 75 % 11.86 C
880 11-08-2008 08:47:02 16.7 C 73 % 11.84 C
881 11-08-2008 08:59:02 17.5 C 68 % 11.53 C
882 11-08-2008 09:11:01 18.2 C 67 % 11.98 C
883 11-08-2008 09:23:02 19.1 C 62 % 11.65 C
884 11-08-2008 09:35:02 19.6 C 60 % 11.63 C
885 11-08-2008 09:47:02 20.2 C 57 % 11.42 C
886 11-08-2008 09:59:03 20.8 C 54 % 11.16 C
887 11-08-2008 10:11:02 20.9 C 52 % 10.68 C
888 11-08-2008 10:23:02 21 C 52 % 10.78 C
889 11-08-2008 10:35:01 21.3 C 51 % 10.76 C
890 11-08-2008 10:47:02 21.6 C 46 % 9.49 C
891 11-08-2008 10:59:02 21.9 C 42 % 8.42 C
892 11-08-2008 11:11:01 22.4 C 41 % 8.51 C
893 11-08-2008 11:23:02 22.5 C 40 % 8.24 C
894 11-08-2008 11:35:01 22.1 C 42 % 8.6 C
895 11-08-2008 11:47:01 22.6 C 44 % 9.74 C
896 11-08-2008 11:59:01 22 C 45 % 9.53 C
897 11-08-2008 12:11:02 22.7 C 42 % 9.14 C
898 11-08-2008 12:23:01 23.4 C 40 % 9.04 C
899 11-08-2008 12:35:02 23.7 C 37 % 8.16 C
900 11-08-2008 12:47:02 24.2 C 33 % 6.92 C
Sensor: Nr:Datum:Temp:Feuchte:Taupunkt:
Aussen-T/F 901 11-08-2008 12:59:02 24.1 C 32 % 6.39 C
902 11-08-2008 13:11:03 25.2 C 31 % 6.88 C
903 11-08-2008 13:23:02 25.9 C 28 % 6.01 C
904 11-08-2008 13:35:02 26 C 26 % 5.03 C
905 11-08-2008 13:47:02 25.8 C 27 % 5.4 C
906 11-08-2008 13:59:02 26.4 C 25 % 4.8 C
907 11-08-2008 14:11:02 26.2 C 24 % 4.05 C
908 11-08-2008 14:23:02 26.5 C 25 % 4.89 C
909 11-08-2008 14:35:02 27.1 C 25 % 5.39 C
910 11-08-2008 14:47:01 27.2 C 24 % 4.89 C
911 11-08-2008 14:59:01 27 C 22 % 3.49 C
912 11-08-2008 15:11:02 27.8 C 25 % 5.98 C
913 11-08-2008 15:23:01 27.4 C 20 % 2.47 C
914 11-08-2008 15:35:02 26.7 C 21 % 2.58 C
915 11-08-2008 15:47:02 26.7 C 23 % 3.87 C
916 11-08-2008 15:59:02 26.8 C 23 % 3.95 C
917 11-08-2008 16:11:01 26.8 C 23 % 3.95 C
918 11-08-2008 16:23:02 26.2 C 24 % 4.05 C
919 11-08-2008 16:35:02 26.2 C 25 % 4.63 C
920 11-08-2008 16:47:02 25.7 C 27 % 5.31 C
921 11-08-2008 16:59:02 25 C 27 % 4.72 C
922 11-08-2008 17:11:01 25 C 27 % 4.72 C
923 11-08-2008 17:23:02 24.5 C 29 % 5.31 C
924 11-08-2008 17:35:01 24.3 C 31 % 6.1 C
925 11-08-2008 17:47:02 23.9 C 31 % 5.76 C
Sensor: Nr:Datum:Temp:Feuchte:Taupunkt:
Aussen-T/F 926 11-08-2008 17:59:03 23.9 C 30 % 5.28 C
927 11-08-2008 18:11:02 23.9 C 32 % 6.21 C
928 11-08-2008 18:23:02 22.9 C 39 % 8.22 C
929 11-08-2008 18:35:02 23.3 C 38 % 8.19 C
930 11-08-2008 18:47:02 23.2 C 39 % 8.49 C
931 11-08-2008 18:59:02 22.6 C 43 % 9.4 C
932 11-08-2008 19:11:02 22.7 C 41 % 8.78 C
933 11-08-2008 19:23:02 22.9 C 43 % 9.67 C
934 11-08-2008 19:35:01 22.9 C 43 % 9.67 C
935 11-08-2008 19:47:02 22.5 C 46 % 10.31 C
936 11-08-2008 19:59:02 22.1 C 46 % 9.95 C
937 11-08-2008 20:11:02 21.9 C 49 % 10.71 C
938 11-08-2008 20:23:01 21.5 C 50 % 10.65 C
939 11-08-2008 20:35:02 21.2 C 51 % 10.67 C
940 11-08-2008 20:47:02 21.1 C 51 % 10.58 C
941 11-08-2008 20:59:02 20.6 C 55 % 11.25 C
942 11-08-2008 21:11:02 20.1 C 57 % 11.32 C
943 11-08-2008 21:23:02 19.9 C 60 % 11.91 C
944 11-08-2008 21:35:02 19.7 C 60 % 11.72 C
945 11-08-2008 21:47:02 19.9 C 59 % 11.66 C
946 11-08-2008 21:59:02 20.1 C 58 % 11.58 C
947 11-08-2008 22:11:03 19.8 C 60 % 11.82 C
948 11-08-2008 22:24:33 19.9 C 62 % 12.41 C
949 11-08-2008 22:36:33 20 C 62 % 12.5 C
950 11-08-2008 22:48:33 20 C 63 % 12.75 C
Sensor: Nr:Datum:Temp:Feuchte:Taupunkt:
Aussen-T/F 951 11-08-2008 23:00:33 19.8 C 64 % 12.8 C
952 11-08-2008 23:12:33 19.9 C 65 % 13.13 C
953 11-08-2008 23:24:34 19.7 C 65 % 12.94 C
954 11-08-2008 23:36:34 19.5 C 67 % 13.21 C
955 11-08-2008 23:48:34 19.1 C 71 % 13.72 C
956 12-08-2008 00:00:34 18.6 C 74 % 13.88 C
957 12-08-2008 00:12:34 18.3 C 76 % 14 C
958 12-08-2008 00:24:34 18.2 C 78 % 14.3 C
959 12-08-2008 00:36:34 17.9 C 81 % 14.59 C
960 12-08-2008 00:48:34 17.7 C 83 % 14.78 C
961 12-08-2008 01:00:34 17.3 C 84 % 14.57 C
962 12-08-2008 01:12:34 17 C 85 % 14.46 C
963 12-08-2008 01:24:34 17.2 C 86 % 14.84 C
964 12-08-2008 01:36:34 17.5 C 86 % 15.13 C
965 12-08-2008 01:48:34 17.2 C 86 % 14.84 C
966 12-08-2008 02:00:34 17.1 C 87 % 14.92 C
967 12-08-2008 02:12:34 17 C 87 % 14.82 C
968 12-08-2008 02:24:34 16.8 C 88 % 14.8 C
969 12-08-2008 02:36:34 16.8 C 89 % 14.98 C
970 12-08-2008 02:48:34 16.6 C 89 % 14.78 C
971 12-08-2008 03:00:34 16.7 C 89 % 14.88 C
972 12-08-2008 03:12:34 16.8 C 89 % 14.98 C
973 12-08-2008 03:24:34 16.9 C 89 % 15.08 C
974 12-08-2008 03:36:35 16.8 C 88 % 14.8 C
975 12-08-2008 03:48:35 16.4 C 88 % 14.41 C
Sensor: Nr:Datum:Temp:Feuchte:Taupunkt:
Aussen-T/F 976 12-08-2008 04:00:35 16.2 C 88 % 14.21 C
977 12-08-2008 04:12:35 16 C 87 % 13.84 C
978 12-08-2008 04:24:35 15.8 C 88 % 13.82 C
979 12-08-2008 04:36:35 16 C 88 % 14.01 C
980 12-08-2008 04:48:35 15.8 C 89 % 13.99 C
981 12-08-2008 05:00:35 16 C 88 % 14.01 C
982 12-08-2008 05:12:35 16.3 C 88 % 14.31 C
983 12-08-2008 05:24:35 16.2 C 88 % 14.21 C
984 12-08-2008 05:36:35 16.2 C 87 % 14.03 C
985 12-08-2008 05:48:35 16.2 C 87 % 14.03 C
986 12-08-2008 06:00:35 16.1 C 87 % 13.94 C
987 12-08-2008 06:12:35 16 C 87 % 13.84 C
988 12-08-2008 06:24:35 16 C 87 % 13.84 C
989 12-08-2008 06:36:35 16.1 C 88 % 14.11 C
990 12-08-2008 06:48:35 16 C 87 % 13.84 C
991 12-08-2008 07:00:35 16.1 C 88 % 14.11 C
992 12-08-2008 07:12:04 16.1 C 88 % 14.11 C
993 12-08-2008 07:24:03 16.1 C 88 % 14.11 C
994 12-08-2008 07:36:03 16.2 C 88 % 14.21 C
995 12-08-2008 07:48:02 16.2 C 89 % 14.39 C
996 12-08-2008 08:00:02 16.2 C 89 % 14.39 C
997 12-08-2008 08:12:02 16.6 C 90 % 14.95 C
998 12-08-2008 08:24:02 16.8 C 90 % 15.15 C
999 12-08-2008 08:36:02 16.8 C 89 % 14.98 C
1000 12-08-2008 08:48:02 16.9 C 89 % 15.08 C
Sensor: Nr:Datum:Temp:Feuchte:Taupunkt:
Aussen-T/F 1001 12-08-2008 09:00:02 16.6 C 89 % 14.78 C
1002 12-08-2008 09:12:02 16.6 C 90 % 14.95 C
1003 12-08-2008 09:24:02 16.9 C 90 % 15.25 C
1004 12-08-2008 09:36:03 17 C 89 % 15.17 C
1005 12-08-2008 09:48:02 17.2 C 89 % 15.37 C
1006 12-08-2008 10:00:02 17.2 C 89 % 15.37 C
1007 12-08-2008 10:12:02 17.3 C 88 % 15.29 C
1008 12-08-2008 10:24:02 17.4 C 88 % 15.39 C
1009 12-08-2008 10:36:02 17.6 C 88 % 15.59 C
1010 12-08-2008 10:48:02 17.6 C 89 % 15.77 C
1011 12-08-2008 11:00:02 17.9 C 89 % 16.06 C
1012 12-08-2008 11:12:02 18 C 88 % 15.98 C
1013 12-08-2008 11:24:02 18.2 C 88 % 16.18 C
1014 12-08-2008 11:36:02 18.4 C 88 % 16.38 C
1015 12-08-2008 11:48:02 18.9 C 88 % 16.87 C
1016 12-08-2008 12:00:02 19.5 C 85 % 16.91 C
1017 12-08-2008 12:12:01 19.7 C 83 % 16.73 C
1018 12-08-2008 12:24:02 20.5 C 81 % 17.13 C
1019 12-08-2008 12:36:01 21.1 C 77 % 16.91 C
1020 12-08-2008 12:48:01 21.9 C 73 % 16.84 C
1021 12-08-2008 13:00:01 22.4 C 69 % 16.43 C
1022 12-08-2008 13:12:02 22.1 C 68 % 15.92 C
1023 12-08-2008 13:24:01 22.4 C 67 % 15.97 C
1024 12-08-2008 13:36:02 21.8 C 69 % 15.86 C
1025 12-08-2008 13:48:02 21.3 C 72 % 16.05 C
Sensor: Nr:Datum:Temp:Feuchte:Taupunkt:
Aussen-T/F 1026 12-08-2008 14:00:02 20.7 C 76 % 16.32 C
1027 12-08-2008 14:12:02 21.2 C 75 % 16.59 C
1028 12-08-2008 14:24:02 22.2 C 69 % 16.24 C
1029 12-08-2008 14:36:02 23.4 C 64 % 16.2 C
1030 12-08-2008 14:48:02 23.5 C 62 % 15.8 C
1031 12-08-2008 15:00:02 22.8 C 61 % 14.89 C
1032 12-08-2008 15:12:02 22.9 C 61 % 14.98 C
1033 12-08-2008 15:24:02 22.2 C 62 % 14.58 C
1034 12-08-2008 15:36:03 21.4 C 68 % 15.25 C
1035 12-08-2008 15:48:02 20.6 C 73 % 15.59 C
1036 12-08-2008 16:00:02 19.7 C 82 % 16.54 C
1037 12-08-2008 16:12:03 19.9 C 84 % 17.12 C
1038 12-08-2008 16:24:02 20.9 C 82 % 17.71 C
1039 12-08-2008 16:36:03 21.5 C 79 % 17.7 C
1040 12-08-2008 16:48:02 21.2 C 70 % 15.51 C
1041 12-08-2008 17:00:02 21.6 C 66 % 14.98 C
1042 12-08-2008 17:12:02 21.5 C 66 % 14.88 C
1043 12-08-2008 17:24:02 21.5 C 64 % 14.41 C
1044 12-08-2008 17:36:02 21.3 C 69 % 15.38 C
1045 12-08-2008 17:48:02 21.4 C 66 % 14.79 C
1046 12-08-2008 18:00:02 21.4 C 64 % 14.31 C
1047 12-08-2008 18:12:02 21.3 C 64 % 14.22 C
1048 12-08-2008 18:24:02 21.5 C 65 % 14.65 C
1049 12-08-2008 18:36:03 21.9 C 63 % 14.54 C
1050 12-08-2008 18:48:02 21.8 C 59 % 13.44 C
Sensor: Nr:Datum:Temp:Feuchte:Taupunkt:
Aussen-T/F 1051 12-08-2008 19:00:02 21.9 C 59 % 13.53 C
1052 12-08-2008 19:12:02 22.3 C 59 % 13.9 C
1053 12-08-2008 19:24:02 22.6 C 55 % 13.11 C
1054 12-08-2008 19:36:02 22.5 C 54 % 12.73 C
1055 12-08-2008 19:48:02 22.6 C 53 % 12.54 C
1056 12-08-2008 20:00:02 22.5 C 52 % 12.16 C
1057 12-08-2008 20:12:01 22.8 C 51 % 12.14 C
1058 12-08-2008 20:24:02 22.5 C 52 % 12.16 C
1059 12-08-2008 20:36:01 21.8 C 55 % 12.36 C
1060 12-08-2008 20:48:01 21.2 C 57 % 12.35 C
1061 12-08-2008 21:00:01 20.7 C 59 % 12.41 C
1062 12-08-2008 21:12:02 20.2 C 62 % 12.69 C
1063 12-08-2008 21:24:02 20 C 64 % 12.99 C
1064 12-08-2008 21:36:02 19.7 C 67 % 13.4 C
1065 12-08-2008 21:48:03 19.4 C 70 % 13.79 C
1066 12-08-2008 22:00:03 19.1 C 72 % 13.94 C
1067 12-08-2008 22:12:02 19 C 71 % 13.63 C
1068 12-08-2008 22:24:02 18.9 C 73 % 13.96 C
1069 12-08-2008 22:36:02 18.6 C 73 % 13.67 C
1070 12-08-2008 22:48:02 18.4 C 73 % 13.48 C
1071 12-08-2008 23:00:03 18.6 C 72 % 13.46 C
1072 12-08-2008 23:12:02 18.9 C 69 % 13.09 C
1073 12-08-2008 23:25:03 19.3 C 67 % 13.02 C
1074 12-08-2008 23:37:03 16.6 C 70 % 11.11 C
1075 12-08-2008 23:49:03 15.6 C 75 % 11.19 C
Sensor: Nr:Datum:Temp:Feuchte:Taupunkt:
Aussen-T/F 1076 13-08-2008 00:01:03 15.2 C 77 % 11.2 C
1077 13-08-2008 00:13:03 15 C 80 % 11.58 C
1078 13-08-2008 00:25:03 14.7 C 81 % 11.48 C
1079 13-08-2008 00:37:03 14.4 C 82 % 11.37 C
1080 13-08-2008 00:49:04 14.2 C 83 % 11.36 C
1081 13-08-2008 01:01:04 14.2 C 84 % 11.54 C
1082 13-08-2008 01:13:04 14.3 C 85 % 11.81 C
1083 13-08-2008 01:25:04 14.3 C 86 % 11.99 C
1084 13-08-2008 01:37:04 14.3 C 86 % 11.99 C
1085 13-08-2008 01:49:04 14.6 C 86 % 12.29 C
1086 13-08-2008 02:01:04 14.6 C 86 % 12.29 C
1087 13-08-2008 02:13:04 14.7 C 86 % 12.38 C
1088 13-08-2008 02:25:04 14.5 C 86 % 12.19 C
1089 13-08-2008 02:37:04 14.3 C 86 % 11.99 C
1090 13-08-2008 02:49:04 14.2 C 86 % 11.89 C
1091 13-08-2008 03:01:04 14.2 C 87 % 12.07 C
1092 13-08-2008 03:13:04 14.3 C 88 % 12.34 C
1093 13-08-2008 03:25:04 14.3 C 88 % 12.34 C
1094 13-08-2008 03:37:04 14.3 C 87 % 12.17 C
1095 13-08-2008 03:49:04 14.2 C 87 % 12.07 C
1096 13-08-2008 04:01:04 14.1 C 87 % 11.97 C
1097 13-08-2008 04:13:04 14.4 C 84 % 11.73 C
1098 13-08-2008 04:25:04 14.7 C 80 % 11.29 C
1099 13-08-2008 04:37:04 15 C 74 % 10.41 C
1100 13-08-2008 04:49:05 15.4 C 70 % 9.96 C
Sensor: Nr:Datum:Temp:Feuchte:Taupunkt:
Aussen-T/F 1101 13-08-2008 05:01:05 15.2 C 70 % 9.77 C
1102 13-08-2008 05:13:05 15.4 C 68 % 9.53 C
1103 13-08-2008 05:25:05 15.4 C 68 % 9.53 C
1104 13-08-2008 05:37:05 15.6 C 66 % 9.28 C
1105 13-08-2008 05:49:05 15.8 C 64 % 9.01 C
1106 13-08-2008 06:01:05 15.8 C 64 % 9.01 C
1107 13-08-2008 06:13:05 15.9 C 63 % 8.87 C
1108 13-08-2008 06:25:05 15.9 C 63 % 8.87 C
1109 13-08-2008 06:37:03 15.9 C 63 % 8.87 C
1110 13-08-2008 06:49:02 15.7 C 63 % 8.68 C
1111 13-08-2008 07:01:02 15.8 C 63 % 8.78 C
1112 13-08-2008 07:13:02 15.9 C 63 % 8.87 C
1113 13-08-2008 07:25:03 15.9 C 63 % 8.87 C
1114 13-08-2008 07:37:02 16.4 C 61 % 8.87 C
1115 13-08-2008 07:49:02 16.6 C 59 % 8.56 C
1116 13-08-2008 08:01:02 16.5 C 60 % 8.72 C
1117 13-08-2008 08:13:02 16.6 C 59 % 8.56 C
1118 13-08-2008 08:25:02 16.8 C 59 % 8.75 C
1119 13-08-2008 08:37:02 16.9 C 57 % 8.34 C
1120 13-08-2008 08:49:01 16.8 C 57 % 8.24 C
1121 13-08-2008 09:01:02 17.1 C 55 % 8 C
1122 13-08-2008 09:13:02 17.4 C 55 % 8.28 C
1123 13-08-2008 09:25:02 17.7 C 53 % 8.01 C
1124 13-08-2008 09:37:02 17.6 C 54 % 8.19 C
1125 13-08-2008 09:49:02 17.6 C 53 % 7.92 C
Sensor: Nr:Datum:Temp:Feuchte:Taupunkt:
Aussen-T/F 1126 13-08-2008 10:01:02 18.1 C 51 % 7.81 C
1127 13-08-2008 10:13:03 18.3 C 50 % 7.71 C
1128 13-08-2008 10:25:02 18.3 C 51 % 8 C
1129 13-08-2008 10:37:02 18.5 C 50 % 7.89 C
1130 13-08-2008 10:49:02 17 C 59 % 8.94 C
1131 13-08-2008 11:01:03 17.2 C 62 % 9.86 C
1132 13-08-2008 11:13:03 18.1 C 59 % 9.97 C
1133 13-08-2008 11:25:02 18.3 C 55 % 9.11 C
1134 13-08-2008 11:37:03 19.3 C 51 % 8.92 C
1135 13-08-2008 11:49:02 19.7 C 48 % 8.39 C
1136 13-08-2008 12:01:02 20 C 47 % 8.35 C
1137 13-08-2008 12:13:02 20 C 45 % 7.72 C
1138 13-08-2008 12:25:02 19.7 C 44 % 7.12 C
1139 13-08-2008 12:37:02 20.7 C 43 % 7.68 C
1140 13-08-2008 12:49:03 21.3 C 40 % 7.16 C
1141 13-08-2008 13:01:02 20.8 C 40 % 6.72 C
1142 13-08-2008 13:13:02 21.2 C 40 % 7.08 C
1143 13-08-2008 13:25:02 21.4 C 40 % 7.25 C
1144 13-08-2008 13:37:02 21.2 C 40 % 7.08 C
1145 13-08-2008 13:49:02 21.2 C 40 % 7.08 C
1146 13-08-2008 14:01:02 21.6 C 40 % 7.43 C
1147 13-08-2008 14:13:02 21.7 C 41 % 7.88 C
1148 13-08-2008 14:25:02 22.5 C 38 % 7.48 C
1149 13-08-2008 14:37:02 22 C 38 % 7.04 C
1150 13-08-2008 14:49:02 21.6 C 40 % 7.43 C
Sensor: Nr:Datum:Temp:Feuchte:Taupunkt:
Aussen-T/F 1151 13-08-2008 15:01:02 19.1 C 40 % 5.2 C
1152 13-08-2008 15:13:02 19.1 C 67 % 12.83 C
1153 13-08-2008 15:25:02 20.5 C 58 % 11.96 C
1154 13-08-2008 15:37:02 20.4 C 53 % 10.51 C
1155 13-08-2008 15:49:02 22.2 C 45 % 9.71 C
1156 13-08-2008 16:01:02 22.6 C 41 % 8.69 C
1157 13-08-2008 16:13:02 23.6 C 37 % 8.07 C
1158 13-08-2008 16:25:02 23.5 C 33 % 6.31 C
1159 13-08-2008 16:37:02 23.8 C 32 % 6.13 C
1160 13-08-2008 16:49:02 24.3 C 31 % 6.1 C
1161 13-08-2008 17:01:02 24.1 C 29 % 4.97 C
1162 13-08-2008 17:13:02 23.5 C 31 % 5.41 C
1163 13-08-2008 17:25:02 24.3 C 30 % 5.63 C
1164 13-08-2008 17:37:02 23.8 C 30 % 5.2 C
1165 13-08-2008 17:49:02 23.4 C 31 % 5.32 C
1166 13-08-2008 18:01:02 23.3 C 31 % 5.24 C
1167 13-08-2008 18:13:02 23.6 C 31 % 5.5 C
1168 13-08-2008 18:25:02 23.5 C 31 % 5.41 C
1169 13-08-2008 18:37:02 22.6 C 33 % 5.53 C
1170 13-08-2008 18:49:02 22 C 35 % 5.85 C
1171 13-08-2008 19:01:02 21.6 C 40 % 7.43 C
1172 13-08-2008 19:13:02 21.7 C 38 % 6.77 C
1173 13-08-2008 19:25:02 21.6 C 36 % 5.9 C
1174 13-08-2008 19:37:02 21.3 C 37 % 6.03 C
1175 13-08-2008 19:49:01 21.2 C 38 % 6.33 C
Sensor: Nr:Datum:Temp:Feuchte:Taupunkt:
Aussen-T/F 1176 13-08-2008 20:01:02 19.4 C 48 % 8.12 C
1177 13-08-2008 20:13:02 19.5 C 50 % 8.81 C
1178 13-08-2008 20:25:01 19.5 C 51 % 9.1 C
1179 13-08-2008 20:37:02 19.6 C 50 % 8.9 C
1180 13-08-2008 20:49:02 19.5 C 50 % 8.81 C
1181 13-08-2008 21:01:02 19.7 C 41 % 6.09 C
1182 13-08-2008 21:13:02 19.8 C 40 % 5.82 C
1183 13-08-2008 21:25:02 19.5 C 41 % 5.91 C
1184 13-08-2008 21:37:03 18.8 C 46 % 6.95 C
1185 13-08-2008 21:50:04 18.7 C 47 % 7.17 C
1186 13-08-2008 22:02:04 18.3 C 49 % 7.41 C
1187 13-08-2008 22:14:04 18.3 C 49 % 7.41 C
1188 13-08-2008 22:26:04 18.4 C 48 % 7.2 C
1189 13-08-2008 22:38:04 18 C 50 % 7.43 C
1190 13-08-2008 22:50:04 17.8 C 52 % 7.82 C
1191 13-08-2008 23:02:04 17.8 C 51 % 7.54 C
1192 13-08-2008 23:14:04 17.4 C 53 % 7.73 C
1193 13-08-2008 23:26:04 17.3 C 54 % 7.91 C
1194 13-08-2008 23:38:04 17.1 C 55 % 8 C
1195 13-08-2008 23:50:04 17 C 57 % 8.43 C
1196 14-08-2008 00:02:04 17.1 C 57 % 8.52 C
1197 14-08-2008 00:14:04 16.8 C 58 % 8.5 C
1198 14-08-2008 00:26:04 16.4 C 59 % 8.38 C
1199 14-08-2008 00:38:04 16.2 C 60 % 8.43 C
1200 14-08-2008 00:50:04 16.4 C 61 % 8.87 C
Sensor: Nr:Datum:Temp:Feuchte:Taupunkt:
Aussen-T/F 1201 14-08-2008 01:02:04 16.4 C 61 % 8.87 C
1202 14-08-2008 01:14:04 16.4 C 62 % 9.11 C
1203 14-08-2008 01:26:05 16.1 C 62 % 8.82 C
1204 14-08-2008 01:38:05 15.9 C 64 % 9.11 C
1205 14-08-2008 01:50:05 15.8 C 64 % 9.01 C
1206 14-08-2008 02:02:05 16 C 63 % 8.97 C
1207 14-08-2008 02:14:05 16 C 63 % 8.97 C
1208 14-08-2008 02:26:05 15.8 C 64 % 9.01 C
1209 14-08-2008 02:38:05 15.4 C 66 % 9.09 C
1210 14-08-2008 02:50:05 15.3 C 68 % 9.43 C
1211 14-08-2008 03:02:05 15.1 C 68 % 9.24 C
1212 14-08-2008 03:14:05 15 C 69 % 9.36 C
1213 14-08-2008 03:26:05 14.9 C 70 % 9.48 C
1214 14-08-2008 03:38:05 14.8 C 71 % 9.6 C
1215 14-08-2008 03:50:05 14.7 C 71 % 9.5 C
1216 14-08-2008 04:02:05 14.5 C 72 % 9.52 C
1217 14-08-2008 04:14:05 14.5 C 73 % 9.72 C
1218 14-08-2008 04:26:05 14.3 C 73 % 9.53 C
1219 14-08-2008 04:38:05 14.1 C 74 % 9.54 C
1220 14-08-2008 04:50:05 13.9 C 75 % 9.55 C
1221 14-08-2008 05:02:05 13.9 C 76 % 9.74 C
1222 14-08-2008 05:14:05 13.8 C 77 % 9.84 C
1223 14-08-2008 05:26:05 13.6 C 77 % 9.65 C
1224 14-08-2008 05:38:06 13.6 C 77 % 9.65 C
1225 14-08-2008 05:50:06 13.5 C 78 % 9.74 C
Sensor: Nr:Datum:Temp:Feuchte:Taupunkt:
Aussen-T/F 1226 14-08-2008 06:02:06 13.6 C 77 % 9.65 C
1227 14-08-2008 06:14:06 13.6 C 77 % 9.65 C
1228 14-08-2008 06:26:03 13.7 C 77 % 9.75 C
1229 14-08-2008 06:38:04 13.7 C 77 % 9.75 C
1230 14-08-2008 06:50:02 13.7 C 77 % 9.75 C
1231 14-08-2008 07:02:02 13.8 C 76 % 9.65 C
1232 14-08-2008 07:14:02 13.8 C 76 % 9.65 C
1233 14-08-2008 07:26:02 13.8 C 76 % 9.65 C
1234 14-08-2008 07:38:01 14 C 75 % 9.64 C
1235 14-08-2008 07:50:02 14.1 C 75 % 9.74 C
1236 14-08-2008 08:02:01 14.3 C 73 % 9.53 C
1237 14-08-2008 08:14:01 14.5 C 73 % 9.72 C
1238 14-08-2008 08:26:02 14.6 C 73 % 9.82 C
1239 14-08-2008 08:38:01 14.9 C 71 % 9.69 C
1240 14-08-2008 08:50:02 15.4 C 64 % 8.63 C
1241 14-08-2008 09:02:01 15.8 C 61 % 8.3 C
1242 14-08-2008 09:14:01 16.1 C 58 % 7.84 C
1243 14-08-2008 09:26:02 16.4 C 56 % 7.61 C
1244 14-08-2008 09:38:02 16.8 C 50 % 6.33 C
1245 14-08-2008 09:50:02 17.1 C 49 % 6.31 C
1246 14-08-2008 10:02:02 17.4 C 48 % 6.29 C
1247 14-08-2008 10:14:02 17.8 C 47 % 6.35 C
1248 14-08-2008 10:26:01 18.1 C 46 % 6.31 C
1249 14-08-2008 10:38:02 18.3 C 44 % 5.85 C
1250 14-08-2008 10:50:02 18.8 C 44 % 6.3 C
Sensor: Nr:Datum:Temp:Feuchte:Taupunkt:
Aussen-T/F 1251 14-08-2008 11:02:02 19.1 C 43 % 6.24 C
1252 14-08-2008 11:14:02 19.5 C 42 % 6.26 C
1253 14-08-2008 11:26:02 19.8 C 41 % 6.18 C
1254 14-08-2008 11:38:02 20.3 C 40 % 6.27 C
1255 14-08-2008 11:50:02 20.4 C 38 % 5.62 C
1256 14-08-2008 12:02:02 20.8 C 35 % 4.79 C
1257 14-08-2008 12:14:02 21.2 C 33 % 4.3 C
1258 14-08-2008 12:26:01 22 C 31 % 4.11 C
1259 14-08-2008 12:38:02 21.9 C 30 % 3.56 C
1260 14-08-2008 12:50:02 22 C 28 % 2.67 C
1261 14-08-2008 13:02:02 22.9 C 30 % 4.42 C
1262 14-08-2008 13:14:02 23.2 C 29 % 4.2 C
1263 14-08-2008 13:26:02 23.4 C 30 % 4.85 C
1264 14-08-2008 13:38:02 24 C 28 % 4.38 C
1265 14-08-2008 13:50:02 23.4 C 30 % 4.85 C
1266 14-08-2008 14:02:01 23.4 C 28 % 3.87 C
1267 14-08-2008 14:14:01 23.1 C 28 % 3.61 C
1268 14-08-2008 14:26:02 23 C 28 % 3.53 C
1269 14-08-2008 14:38:01 23.4 C 29 % 4.37 C
1270 14-08-2008 14:50:02 24.1 C 26 % 3.42 C
1271 14-08-2008 15:02:01 24.3 C 25 % 3.03 C
1272 14-08-2008 15:14:01 24.2 C 25 % 2.95 C
1273 14-08-2008 15:26:02 24.4 C 25 % 3.12 C
1274 14-08-2008 15:38:01 24.5 C 25 % 3.2 C
1275 14-08-2008 15:50:01 24.8 C 24 % 2.88 C
Sensor: Nr:Datum:Temp:Feuchte:Taupunkt:
Aussen-T/F 1276 14-08-2008 16:02:01 25.2 C 23 % 2.61 C
1277 14-08-2008 16:14:01 25.1 C 24 % 3.13 C
1278 14-08-2008 16:26:01 25.5 C 22 % 2.24 C
1279 14-08-2008 16:38:01 25.6 C 21 % 1.67 C
1280 14-08-2008 16:50:01 26.2 C 21 % 2.17 C
1281 14-08-2008 17:02:02 25.1 C 22 % 1.91 C
1282 14-08-2008 17:14:03 26.7 C 20 % 1.9 C
1283 14-08-2008 17:26:01 26.5 C 20 % 1.74 C
1284 14-08-2008 17:38:02 26.7 C 20 % 1.9 C
1285 14-08-2008 17:50:01 26.6 C 20 % 1.82 C
1286 14-08-2008 18:02:02 26.7 C 20 % 1.9 C
1287 14-08-2008 18:14:02 26.8 C 20 % 1.98 C
1288 14-08-2008 18:26:01 26.8 C 20 % 1.98 C
1289 14-08-2008 18:38:02 26.2 C 20 % 1.49 C
1290 14-08-2008 18:50:02 26.4 C 20 % 1.65 C
1291 14-08-2008 19:02:02 25.8 C 20 % 1.16 C
1292 14-08-2008 19:14:02 25.1 C 22 % 1.91 C
1293 14-08-2008 19:26:02 23.8 C 26 % 3.16 C
1294 14-08-2008 19:38:02 23.7 C 26 % 3.08 C
1295 14-08-2008 19:50:01 23.6 C 28 % 4.04 C
1296 14-08-2008 20:02:02 22.8 C 28 % 3.36 C
1297 14-08-2008 20:14:02 22.6 C 30 % 4.16 C
1298 14-08-2008 20:26:01 21.8 C 31 % 3.94 C
1299 14-08-2008 20:38:02 20.9 C 34 % 4.47 C
1300 14-08-2008 20:50:02 20.5 C 35 % 4.53 C
Sensor: Nr:Datum:Temp:Feuchte:Taupunkt:
Aussen-T/F 1301 14-08-2008 21:02:02 19.9 C 36 % 4.4 C
1302 14-08-2008 21:14:02 19.4 C 37 % 4.35 C
1303 14-08-2008 21:26:02 19 C 37 % 4 C
1304 14-08-2008 21:38:01 18.8 C 41 % 5.28 C
1305 14-08-2008 21:51:03 18.6 C 42 % 5.45 C
1306 14-08-2008 22:03:03 18.3 C 44 % 5.85 C
1307 14-08-2008 22:15:03 18.1 C 44 % 5.67 C
1308 14-08-2008 22:27:03 18.1 C 43 % 5.34 C
1309 14-08-2008 22:39:03 17.9 C 45 % 5.81 C
1310 14-08-2008 22:51:03 17.5 C 47 % 6.07 C
1311 14-08-2008 23:03:03 17.5 C 47 % 6.07 C
1312 14-08-2008 23:15:03 17.4 C 50 % 6.88 C
1313 14-08-2008 23:27:03 17.2 C 51 % 6.98 C
1314 14-08-2008 23:39:03 17 C 51 % 6.8 C
1315 14-08-2008 23:51:03 17.1 C 51 % 6.89 C
1316 15-08-2008 00:03:03 17 C 51 % 6.8 C
1317 15-08-2008 00:15:03 17 C 52 % 7.08 C
1318 15-08-2008 00:27:03 16.8 C 54 % 7.45 C
1319 15-08-2008 00:39:03 16.8 C 53 % 7.18 C
1320 15-08-2008 00:51:03 16.7 C 54 % 7.36 C
1321 15-08-2008 01:03:03 16.6 C 54 % 7.26 C
1322 15-08-2008 01:15:04 16.7 C 54 % 7.36 C
1323 15-08-2008 01:27:04 16.5 C 55 % 7.44 C
1324 15-08-2008 01:39:04 16.3 C 56 % 7.52 C
1325 15-08-2008 01:51:04 16.1 C 56 % 7.33 C
Sensor: Nr:Datum:Temp:Feuchte:Taupunkt:
Aussen-T/F 1326 15-08-2008 02:03:04 16.1 C 56 % 7.33 C
1327 15-08-2008 02:15:04 16 C 57 % 7.49 C
1328 15-08-2008 02:27:04 15.9 C 59 % 7.91 C
1329 15-08-2008 02:39:04 15.7 C 59 % 7.72 C
1330 15-08-2008 02:51:04 15.6 C 59 % 7.62 C
1331 15-08-2008 03:03:04 15.6 C 60 % 7.87 C
1332 15-08-2008 03:15:04 15.5 C 61 % 8.02 C
1333 15-08-2008 03:27:04 15.5 C 61 % 8.02 C
1334 15-08-2008 03:39:04 15.2 C 62 % 7.98 C
1335 15-08-2008 03:51:04 15.2 C 63 % 8.21 C
1336 15-08-2008 04:03:04 14.9 C 65 % 8.39 C
1337 15-08-2008 04:15:04 14.7 C 66 % 8.42 C
1338 15-08-2008 04:27:04 14.5 C 67 % 8.45 C
1339 15-08-2008 04:39:04 14.6 C 67 % 8.55 C
1340 15-08-2008 04:51:04 14.6 C 67 % 8.55 C
1341 15-08-2008 05:03:05 14.5 C 67 % 8.45 C
1342 15-08-2008 05:15:05 14.3 C 68 % 8.48 C
1343 15-08-2008 05:27:05 14 C 69 % 8.41 C
1344 15-08-2008 05:39:05 13.8 C 71 % 8.64 C
1345 15-08-2008 05:51:05 13.8 C 71 % 8.64 C
1346 15-08-2008 06:03:05 13.7 C 72 % 8.75 C
1347 15-08-2008 06:15:05 13.6 C 72 % 8.65 C
1348 15-08-2008 06:27:05 13.6 C 72 % 8.65 C
1349 15-08-2008 06:39:05 13.5 C 73 % 8.76 C
1350 15-08-2008 06:51:01 13.5 C 73 % 8.76 C
Sensor: Nr:Datum:Temp:Feuchte:Taupunkt:
Aussen-T/F 1351 15-08-2008 07:03:02 13.4 C 74 % 8.87 C
1352 15-08-2008 07:15:01 13.3 C 74 % 8.77 C
1353 15-08-2008 07:27:01 13 C 75 % 8.68 C
1354 15-08-2008 07:39:02 12.8 C 77 % 8.87 C
1355 15-08-2008 07:51:02 12.8 C 78 % 9.06 C
1356 15-08-2008 08:03:02 12.9 C 78 % 9.16 C
1357 15-08-2008 08:15:02 13 C 77 % 9.07 C
1358 15-08-2008 08:27:02 13.3 C 77 % 9.36 C
1359 15-08-2008 08:39:02 13.5 C 75 % 9.16 C
1360 15-08-2008 08:51:02 13.8 C 74 % 9.25 C
1361 15-08-2008 09:03:03 14.1 C 73 % 9.34 C
1362 15-08-2008 09:15:02 14.4 C 70 % 9 C
1363 15-08-2008 09:27:03 15 C 70 % 9.58 C
1364 15-08-2008 09:39:02 16 C 65 % 9.43 C
1365 15-08-2008 09:51:02 16.8 C 61 % 9.24 C
1366 15-08-2008 10:03:02 17.2 C 55 % 8.09 C
1367 15-08-2008 10:15:02 17.7 C 54 % 8.28 C
1368 15-08-2008 10:27:02 18.1 C 53 % 8.38 C
1369 15-08-2008 10:39:02 18.4 C 51 % 8.09 C
1370 15-08-2008 10:51:01 18.9 C 49 % 7.96 C
1371 15-08-2008 11:03:02 19.3 C 44 % 6.75 C
1372 15-08-2008 11:15:01 19.9 C 44 % 7.3 C
1373 15-08-2008 11:27:01 20.6 C 42 % 7.25 C
1374 15-08-2008 11:39:01 20.8 C 41 % 7.08 C
1375 15-08-2008 11:51:02 20.5 C 41 % 6.81 C
Sensor: Nr:Datum:Temp:Feuchte:Taupunkt:
Aussen-T/F 1376 15-08-2008 12:03:02 21.2 C 39 % 6.71 C
1377 15-08-2008 12:15:02 22.1 C 37 % 6.74 C
1378 15-08-2008 12:27:02 22.8 C 37 % 7.36 C
1379 15-08-2008 12:39:02 23 C 34 % 6.31 C
1380 15-08-2008 12:51:02 22.7 C 35 % 6.46 C
1381 15-08-2008 13:03:03 21.6 C 38 % 6.69 C
1382 15-08-2008 13:15:02 22 C 35 % 5.85 C
1383 15-08-2008 13:27:02 21.7 C 36 % 5.99 C
1384 15-08-2008 13:39:03 22.1 C 35 % 5.94 C
1385 15-08-2008 13:51:02 22.7 C 33 % 5.61 C
1386 15-08-2008 14:03:01 22.3 C 39 % 7.69 C
1387 15-08-2008 14:15:02 19.6 C 51 % 9.2 C
1388 15-08-2008 14:27:02 19.2 C 49 % 8.24 C
1389 15-08-2008 14:39:01 19.7 C 46 % 7.77 C
1390 15-08-2008 14:51:02 20.5 C 47 % 8.81 C
1391 15-08-2008 15:03:01 22.7 C 35 % 6.46 C
1392 15-08-2008 15:21:02 20.6 C 44 % 7.93 C
1393 15-08-2008 15:33:01 20.7 C 45 % 8.35 C
1394 15-08-2008 15:45:02 22 C 42 % 8.51 C
1395 15-08-2008 15:57:02 22.6 C 36 % 6.78 C
1396 15-08-2008 16:09:01 22.9 C 37 % 7.45 C
1397 15-08-2008 16:21:02 23.6 C 33 % 6.4 C
1398 15-08-2008 16:33:01 24.8 C 30 % 6.06 C
1399 15-08-2008 16:45:01 26.1 C 25 % 4.55 C
1400 15-08-2008 16:57:01 24.8 C 27 % 4.55 C
Sensor: Nr:Datum:Temp:Feuchte:Taupunkt:
Aussen-T/F 1401 15-08-2008 17:09:01 23.8 C 31 % 5.67 C
1402 15-08-2008 17:21:01 24.4 C 31 % 6.19 C
1403 15-08-2008 17:33:01 25.3 C 28 % 5.49 C
1404 15-08-2008 17:45:01 24.3 C 32 % 6.56 C
1405 15-08-2008 17:57:01 23.6 C 35 % 7.25 C
1406 15-08-2008 18:09:02 24 C 31 % 5.84 C
1407 15-08-2008 18:21:01 24 C 32 % 6.3 C
1408 15-08-2008 18:33:02 23.4 C 33 % 6.22 C
1409 15-08-2008 18:45:03 23.8 C 32 % 6.13 C
1410 15-08-2008 18:57:03 24.1 C 32 % 6.39 C
1411 15-08-2008 19:09:02 24.6 C 31 % 6.36 C
1412 15-08-2008 19:21:02 24.6 C 30 % 5.89 C
1413 15-08-2008 19:33:02 24.7 C 31 % 6.45 C
1414 15-08-2008 19:45:01 24.2 C 33 % 6.92 C
1415 15-08-2008 19:57:01 22 C 38 % 7.04 C
1416 15-08-2008 20:09:02 20.6 C 42 % 7.25 C
1417 15-08-2008 20:21:01 19.9 C 44 % 7.3 C
1418 15-08-2008 20:33:02 19.4 C 45 % 7.17 C
1419 15-08-2008 20:45:03 19.1 C 46 % 7.22 C
1420 15-08-2008 20:57:03 18.9 C 48 % 7.66 C
1421 15-08-2008 21:09:02 18.4 C 50 % 7.8 C
1422 15-08-2008 21:21:02 18.1 C 49 % 7.23 C
1423 15-08-2008 21:33:02 18.2 C 52 % 8.19 C
1424 15-08-2008 21:45:01 18 C 52 % 8.01 C
1425 15-08-2008 21:57:01 17.7 C 57 % 9.08 C
Sensor: Nr:Datum:Temp:Feuchte:Taupunkt:
Aussen-T/F 1426 15-08-2008 22:10:03 17.1 C 62 % 9.77 C
1427 15-08-2008 22:22:03 17.1 C 61 % 9.53 C
1428 15-08-2008 22:34:03 16.8 C 61 % 9.24 C
1429 15-08-2008 22:46:03 16.7 C 61 % 9.15 C
1430 15-08-2008 22:58:03 17 C 57 % 8.43 C
1431 15-08-2008 23:10:03 17 C 57 % 8.43 C
1432 15-08-2008 23:22:03 16.7 C 59 % 8.66 C
1433 15-08-2008 23:34:03 16.3 C 60 % 8.53 C
1434 15-08-2008 23:46:04 16 C 61 % 8.49 C
1435 15-08-2008 23:58:04 15.8 C 62 % 8.54 C
1436 16-08-2008 00:10:04 15.4 C 64 % 8.63 C
1437 16-08-2008 00:22:04 15.4 C 64 % 8.63 C
1438 16-08-2008 00:34:04 15.1 C 66 % 8.8 C
1439 16-08-2008 00:46:04 14.8 C 66 % 8.52 C
1440 16-08-2008 00:58:04 14.7 C 68 % 8.86 C
1441 16-08-2008 01:10:04 14.4 C 70 % 9 C
1442 16-08-2008 01:22:04 14.1 C 70 % 8.72 C
1443 16-08-2008 01:34:04 14.1 C 71 % 8.93 C
1444 16-08-2008 01:46:04 13.9 C 72 % 8.94 C
1445 16-08-2008 01:58:04 13.9 C 73 % 9.15 C
1446 16-08-2008 02:10:04 13.7 C 73 % 8.95 C
1447 16-08-2008 02:22:04 13.5 C 74 % 8.96 C
1448 16-08-2008 02:34:04 13.4 C 74 % 8.87 C
1449 16-08-2008 02:46:04 13.2 C 74 % 8.67 C
1450 16-08-2008 02:58:04 13.1 C 75 % 8.77 C
Sensor: Nr:Datum:Temp:Feuchte:Taupunkt:
Aussen-T/F 1451 16-08-2008 03:10:04 12.9 C 76 % 8.78 C
1452 16-08-2008 03:22:04 12.7 C 78 % 8.97 C
1453 16-08-2008 03:34:04 12.5 C 78 % 8.77 C
1454 16-08-2008 03:46:04 12.4 C 78 % 8.68 C
1455 16-08-2008 03:58:05 12.4 C 79 % 8.86 C
1456 16-08-2008 04:10:05 12.1 C 79 % 8.57 C
1457 16-08-2008 04:22:05 12 C 81 % 8.84 C
1458 16-08-2008 04:34:05 11.8 C 82 % 8.83 C
1459 16-08-2008 04:46:05 11.6 C 83 % 8.81 C
1460 16-08-2008 04:58:05 11.5 C 83 % 8.72 C
1461 16-08-2008 05:10:05 11.4 C 83 % 8.62 C
1462 16-08-2008 05:22:05 11.2 C 83 % 8.42 C
1463 16-08-2008 05:34:05 11.1 C 83 % 8.33 C
1464 16-08-2008 05:46:05 11 C 84 % 8.4 C
1465 16-08-2008 05:58:05 10.8 C 84 % 8.21 C
1466 16-08-2008 06:10:05 10.8 C 84 % 8.21 C
1467 16-08-2008 06:22:05 10.7 C 84 % 8.11 C
1468 16-08-2008 06:34:05 10.6 C 84 % 8.01 C
1469 16-08-2008 06:46:05 10.5 C 85 % 8.09 C
1470 16-08-2008 06:58:05 10.5 C 85 % 8.09 C
1471 16-08-2008 07:10:05 10.6 C 85 % 8.19 C
1472 16-08-2008 07:22:02 10.7 C 84 % 8.11 C
1473 16-08-2008 07:34:03 10.8 C 84 % 8.21 C
1474 16-08-2008 07:46:02 10.9 C 84 % 8.31 C
1475 16-08-2008 07:58:02 11 C 84 % 8.4 C
Sensor: Nr:Datum:Temp:Feuchte:Taupunkt:
Aussen-T/F 1476 16-08-2008 08:10:02 11.1 C 84 % 8.5 C
1477 16-08-2008 08:22:02 11.4 C 84 % 8.8 C
1478 16-08-2008 08:34:02 11.6 C 84 % 8.99 C
1479 16-08-2008 08:46:03 12 C 82 % 9.03 C
1480 16-08-2008 08:58:03 12.2 C 80 % 8.86 C
1481 16-08-2008 09:10:02 12.6 C 79 % 9.06 C
1482 16-08-2008 09:22:03 13 C 76 % 8.87 C
1483 16-08-2008 09:34:02 13.5 C 75 % 9.16 C
1484 16-08-2008 09:46:02 14.1 C 72 % 9.13 C
1485 16-08-2008 09:58:02 14.7 C 69 % 9.08 C
1486 16-08-2008 10:10:02 15.3 C 67 % 9.21 C
1487 16-08-2008 10:22:02 16.1 C 64 % 9.29 C
1488 16-08-2008 10:34:02 16.7 C 62 % 9.39 C
1489 16-08-2008 10:46:02 17.4 C 59 % 9.31 C
1490 16-08-2008 10:58:02 18.1 C 55 % 8.93 C
1491 16-08-2008 11:10:01 18.9 C 53 % 9.12 C
1492 16-08-2008 11:22:02 20 C 50 % 9.27 C
1493 16-08-2008 11:34:01 20.7 C 46 % 8.67 C
1494 16-08-2008 11:46:01 20.4 C 44 % 7.75 C
1495 16-08-2008 11:58:01 20.8 C 44 % 8.11 C
1496 16-08-2008 12:10:01 21.4 C 39 % 6.89 C
1497 16-08-2008 12:22:01 22.1 C 35 % 5.94 C
1498 16-08-2008 12:34:01 22.5 C 35 % 6.29 C
1499 16-08-2008 12:46:01 22.4 C 31 % 4.46 C
1500 16-08-2008 12:58:01 22.5 C 29 % 3.6 C
Sensor: Nr:Datum:Temp:Feuchte:Taupunkt:
Aussen-T/F 1501 16-08-2008 13:10:02 22.7 C 28 % 3.27 C
1502 16-08-2008 13:22:01 23.5 C 26 % 2.91 C
1503 16-08-2008 13:34:02 24.8 C 26 % 4.01 C
1504 16-08-2008 13:46:02 25.1 C 23 % 2.53 C
1505 16-08-2008 13:58:03 25.2 C 21 % 1.34 C
1506 16-08-2008 14:10:02 24.8 C 22 % 1.66 C
1507 16-08-2008 14:22:02 25.7 C 23 % 3.03 C
1508 16-08-2008 14:34:01 26.7 C 20 % 1.9 C
1509 16-08-2008 14:46:02 26.8 C 20 % 1.98 C
1510 16-08-2008 14:58:02 27.2 C 20 % 2.31 C
1511 16-08-2008 15:10:02 27.8 C 20 % 2.8 C
1512 16-08-2008 15:22:02 28.3 C 20 % 3.21 C
1513 16-08-2008 15:34:02 28.8 C 20 % 3.62 C
1514 16-08-2008 15:46:01 29.4 C 20 % 4.11 C
1515 16-08-2008 15:58:01 29.9 C 20 % 4.52 C
1516 16-08-2008 16:10:02 30.2 C 20 % 4.77 C
1517 16-08-2008 16:22:01 29.8 C 20 % 4.44 C
1518 16-08-2008 16:34:02 29.8 C 20 % 4.44 C
1519 16-08-2008 16:46:02 30.2 C 20 % 4.77 C
1520 16-08-2008 16:58:02 30.6 C 20 % 5.1 C
1521 16-08-2008 17:10:02 30.9 C 20 % 5.34 C
1522 16-08-2008 17:22:02 29.2 C 20 % 3.95 C
1523 16-08-2008 17:34:02 28.6 C 20 % 3.46 C
1524 16-08-2008 17:46:02 29 C 20 % 3.79 C
1525 16-08-2008 17:58:02 29.5 C 20 % 4.2 C
Sensor: Nr:Datum:Temp:Feuchte:Taupunkt:
Aussen-T/F 1526 16-08-2008 18:10:01 30.3 C 20 % 4.85 C
1527 16-08-2008 18:22:02 30.3 C 20 % 4.85 C
1528 16-08-2008 18:34:01 30.3 C 20 % 4.85 C
1529 16-08-2008 18:46:01 30.1 C 20 % 4.69 C
1530 16-08-2008 18:58:01 29.7 C 20 % 4.36 C
1531 16-08-2008 19:10:02 28.4 C 20 % 3.29 C
1532 16-08-2008 19:22:01 26.5 C 25 % 4.89 C
1533 16-08-2008 19:34:02 24.9 C 27 % 4.63 C
1534 16-08-2008 19:46:01 23.6 C 30 % 5.03 C
1535 16-08-2008 19:58:01 22.8 C 31 % 4.8 C
1536 16-08-2008 20:10:02 22 C 33 % 5 C
1537 16-08-2008 20:22:02 21.3 C 35 % 5.23 C
1538 16-08-2008 20:34:02 20.8 C 37 % 5.59 C
1539 16-08-2008 20:46:02 20.6 C 38 % 5.8 C
1540 16-08-2008 20:58:02 19.6 C 41 % 6 C
1541 16-08-2008 21:10:02 19.2 C 41 % 5.64 C
1542 16-08-2008 21:22:01 19 C 42 % 5.81 C
1543 16-08-2008 21:34:02 18.9 C 43 % 6.06 C
1544 16-08-2008 21:46:02 18.7 C 44 % 6.21 C
1545 16-08-2008 21:58:02 18.6 C 45 % 6.45 C
1546 16-08-2008 22:10:02 18.5 C 46 % 6.67 C
1547 16-08-2008 22:23:02 18.5 C 46 % 6.67 C
1548 16-08-2008 22:35:02 18.2 C 46 % 6.4 C
1549 16-08-2008 22:47:02 18.2 C 46 % 6.4 C
1550 16-08-2008 22:59:02 18 C 46 % 6.22 C
Sensor: Nr:Datum:Temp:Feuchte:Taupunkt:
Aussen-T/F 1551 16-08-2008 23:11:02 17.8 C 50 % 7.25 C
1552 16-08-2008 23:23:02 17.5 C 52 % 7.54 C
1553 16-08-2008 23:35:02 17.3 C 50 % 6.79 C
1554 16-08-2008 23:47:02 17.1 C 51 % 6.89 C
1555 16-08-2008 23:59:03 16.9 C 50 % 6.42 C
1556 17-08-2008 00:11:03 16.6 C 50 % 6.15 C
1557 17-08-2008 00:23:03 16.2 C 51 % 6.06 C
1558 17-08-2008 00:35:03 16.1 C 53 % 6.53 C
1559 17-08-2008 00:47:03 15.9 C 54 % 6.61 C
1560 17-08-2008 00:59:03 15.8 C 55 % 6.79 C
1561 17-08-2008 01:11:03 15.6 C 56 % 6.86 C
1562 17-08-2008 01:23:03 15.3 C 57 % 6.84 C
1563 17-08-2008 01:35:03 15.1 C 58 % 6.91 C
1564 17-08-2008 01:47:03 14.9 C 59 % 6.97 C
1565 17-08-2008 01:59:03 14.8 C 60 % 7.12 C
1566 17-08-2008 02:11:03 14.7 C 60 % 7.03 C
1567 17-08-2008 02:23:03 14.4 C 61 % 6.98 C
1568 17-08-2008 02:35:03 14.4 C 62 % 7.22 C
1569 17-08-2008 02:47:03 14.3 C 62 % 7.13 C
1570 17-08-2008 02:59:03 14.1 C 63 % 7.17 C
1571 17-08-2008 03:11:03 13.8 C 66 % 7.57 C
1572 17-08-2008 03:23:03 13.7 C 66 % 7.47 C
1573 17-08-2008 03:35:03 13.7 C 66 % 7.47 C
1574 17-08-2008 03:47:03 13.5 C 66 % 7.28 C
1575 17-08-2008 03:59:03 13.6 C 66 % 7.38 C
Sensor: Nr:Datum:Temp:Feuchte:Taupunkt:
Aussen-T/F 1576 17-08-2008 04:11:04 13.4 C 67 % 7.4 C
1577 17-08-2008 04:23:04 13.1 C 68 % 7.34 C
1578 17-08-2008 04:35:04 13.1 C 69 % 7.55 C
1579 17-08-2008 04:47:04 12.9 C 70 % 7.57 C
1580 17-08-2008 04:59:04 12.9 C 70 % 7.57 C
1581 17-08-2008 05:11:04 12.8 C 71 % 7.68 C
1582 17-08-2008 05:23:04 12.7 C 71 % 7.58 C
1583 17-08-2008 05:35:04 12.5 C 72 % 7.6 C
1584 17-08-2008 05:47:04 12.3 C 72 % 7.4 C
1585 17-08-2008 05:59:04 12.4 C 73 % 7.7 C
1586 17-08-2008 06:11:04 12.2 C 73 % 7.51 C
1587 17-08-2008 06:23:04 12.1 C 74 % 7.61 C
1588 17-08-2008 06:35:04 11.9 C 76 % 7.81 C
1589 17-08-2008 06:47:04 11.9 C 76 % 7.81 C
1590 17-08-2008 06:59:04 12 C 75 % 7.71 C
1591 17-08-2008 07:11:04 12 C 75 % 7.71 C
1592 17-08-2008 07:23:04 12 C 76 % 7.91 C
1593 17-08-2008 07:35:04 12 C 76 % 7.91 C
1594 17-08-2008 07:47:04 12.1 C 76 % 8 C
1595 17-08-2008 07:59:04 12.5 C 76 % 8.39 C
1596 17-08-2008 08:11:05 12.5 C 76 % 8.39 C
1597 17-08-2008 08:23:05 12.6 C 75 % 8.29 C
1598 17-08-2008 08:35:05 12.9 C 75 % 8.58 C
1599 17-08-2008 08:47:05 13.2 C 73 % 8.47 C
1600 17-08-2008 08:59:05 13.6 C 72 % 8.65 C
Sensor: Nr:Datum:Temp:Feuchte:Taupunkt:
Aussen-T/F 1601 17-08-2008 09:11:02 13.9 C 71 % 8.73 C
1602 17-08-2008 09:23:03 14.6 C 68 % 8.77 C
1603 17-08-2008 09:35:03 15.1 C 65 % 8.58 C
1604 17-08-2008 09:47:01 15.5 C 64 % 8.73 C
1605 17-08-2008 09:59:01 16.2 C 63 % 9.16 C
1606 17-08-2008 10:11:03 17.1 C 61 % 9.53 C
1607 17-08-2008 10:23:02 17.8 C 59 % 9.69 C
1608 17-08-2008 10:35:02 18.7 C 57 % 10.02 C
1609 17-08-2008 10:47:02 19.6 C 53 % 9.77 C
1610 17-08-2008 10:59:02 20.2 C 51 % 9.75 C
1611 17-08-2008 11:11:03 21 C 47 % 9.27 C
1612 17-08-2008 11:23:03 21.8 C 46 % 9.67 C
1613 17-08-2008 11:35:03 22.5 C 41 % 8.6 C
1614 17-08-2008 11:47:02 22.9 C 38 % 7.84 C
1615 17-08-2008 11:59:02 23.1 C 35 % 6.82 C
1616 17-08-2008 12:11:02 23.7 C 32 % 6.04 C
1617 17-08-2008 12:23:02 24.3 C 30 % 5.63 C
1618 17-08-2008 12:35:02 24.1 C 26 % 3.42 C
1619 17-08-2008 12:47:03 24.5 C 25 % 3.2 C
1620 17-08-2008 12:59:03 24.5 C 21 % 0.76 C
1621 17-08-2008 13:11:02 25 C 21 % 1.18 C
1622 17-08-2008 13:23:02 25.5 C 20 % 0.91 C
1623 17-08-2008 13:35:02 26.4 C 20 % 1.65 C
1624 17-08-2008 13:47:02 26.1 C 20 % 1.41 C
1625 17-08-2008 13:59:02 26.6 C 20 % 1.82 C
Sensor: Nr:Datum:Temp:Feuchte:Taupunkt:
Aussen-T/F 1626 17-08-2008 14:11:02 26.3 C 20 % 1.57 C
1627 17-08-2008 14:23:01 26.2 C 21 % 2.17 C
1628 17-08-2008 14:35:01 26.8 C 21 % 2.67 C
1629 17-08-2008 14:47:01 26.8 C 22 % 3.32 C
1630 17-08-2008 14:59:01 25.9 C 23 % 3.2 C
1631 17-08-2008 15:11:02 25.1 C 24 % 3.13 C
1632 17-08-2008 15:23:01 25.3 C 24 % 3.3 C
1633 17-08-2008 15:35:01 25.7 C 25 % 4.21 C
1634 17-08-2008 15:47:02 27.6 C 21 % 3.33 C
1635 17-08-2008 15:59:02 28.5 C 21 % 4.07 C
1636 17-08-2008 16:11:02 27.9 C 21 % 3.57 C
1637 17-08-2008 16:23:02 27.1 C 22 % 3.57 C
1638 17-08-2008 16:35:01 27.1 C 21 % 2.91 C
1639 17-08-2008 16:47:02 26.3 C 22 % 2.91 C
1640 17-08-2008 16:59:02 26.6 C 22 % 3.15 C
1641 17-08-2008 17:11:01 26.3 C 23 % 3.53 C
1642 17-08-2008 17:23:02 26 C 24 % 3.89 C
1643 17-08-2008 17:35:01 25.9 C 27 % 5.48 C
1644 17-08-2008 17:47:01 25.4 C 26 % 4.52 C
1645 17-08-2008 17:59:01 25.4 C 29 % 6.09 C
1646 17-08-2008 18:11:02 25.2 C 30 % 6.41 C
1647 17-08-2008 18:23:01 25.2 C 28 % 5.41 C
1648 17-08-2008 18:35:02 24.9 C 30 % 6.15 C
1649 17-08-2008 18:47:02 24.6 C 30 % 5.89 C
1650 17-08-2008 18:59:02 24.6 C 31 % 6.36 C
Sensor: Nr:Datum:Temp:Feuchte:Taupunkt:
Aussen-T/F 1651 17-08-2008 19:11:02 25.4 C 30 % 6.58 C
1652 17-08-2008 19:23:02 24.8 C 32 % 7 C
1653 17-08-2008 19:35:02 23.9 C 36 % 7.93 C
1654 17-08-2008 19:47:01 23.7 C 36 % 7.75 C
1655 17-08-2008 19:59:01 24.1 C 36 % 8.11 C
1656 17-08-2008 20:11:01 23.3 C 38 % 8.19 C
1657 17-08-2008 20:23:01 22.1 C 40 % 7.88 C
1658 17-08-2008 20:35:02 21.4 C 43 % 8.31 C
1659 17-08-2008 20:47:02 21.1 C 43 % 8.04 C
1660 17-08-2008 20:59:02 20.8 C 46 % 8.77 C
1661 17-08-2008 21:11:02 20.8 C 45 % 8.44 C
1662 17-08-2008 21:23:02 21 C 44 % 8.29 C
1663 17-08-2008 21:35:02 20.1 C 55 % 10.78 C
1664 17-08-2008 21:47:02 17.7 C 75 % 13.22 C
1665 17-08-2008 21:59:02 17.3 C 81 % 14.01 C
1666 17-08-2008 22:11:01 17.4 C 83 % 14.48 C
1667 17-08-2008 22:23:02 17.6 C 84 % 14.87 C
1668 17-08-2008 22:36:02 17.3 C 82 % 14.2 C
1669 17-08-2008 22:48:02 17.2 C 81 % 13.91 C
1670 17-08-2008 23:00:02 17 C 81 % 13.72 C
1671 17-08-2008 23:12:02 16.8 C 81 % 13.52 C
1672 17-08-2008 23:24:02 16.5 C 81 % 13.23 C
1673 17-08-2008 23:36:02 16.3 C 82 % 13.22 C
1674 17-08-2008 23:48:02 16.1 C 82 % 13.03 C

Legende:
   Min
   Max


Maximal/Minimal-Werte vom 04.08.2008 - 17.08.2008

Sensor Min Max Avg
Temp
(Aussen-T/F)
10.5 °C
16-08-2008  06:46:05
34.2 °C
06-08-2008  18:15:02
20.13 °C
Feuchte
(Aussen-T/F)
20 %
06-08-2008  15:15:02
90 %
04-08-2008  07:01:07
54.99 %
Taupunkt
(Aussen-T/F)
0.76 C
17-08-2008  12:59:03
17.71 C
12-08-2008  16:24:02
9.54 C

Die Daten stammen von einer Davis Vantage Pro 2 Wetter-Station und werden unter Linux mit der Software wview2wettercgi und aufbereitet. Alle Angaben erfolgen ohne Gewähr für ihre Vollständigkeit oder Richtigkeit.
Kontakt: Rainer Krienke krienke@uni-koblenz.de . Meine Webseiten an der Uni Koblenz oder privat.
Version: $Revision: 0.78 $